IBE0311 LEMD-CYQM
Flight info
| Callsign | IBE0311 |
|---|---|
| Flight time | 6h 19m |
| Altitude | 40000 |
| Route | ZMR DCT 4237N00840W 4336N01149W/M081F400 4431N01503W 4520N01824W 4603N02149W 4640N02520W 4710N02855W 4733N03234W 4750N03616W 4759N03959W 4801N04343W 4756N04727W/N0456F400 4744N05109W 4739N05215W DCT TESOX |
| Aircraft | A343/H-SDE2E3FGHIJ4J5M1RWXY/LB1D1 |
Departure
| Time | 2026-05-07 17:20 |
|---|---|
| Airport | Adolfo Suárez Madrid–Barajas Airport (LEMD) |
Arrival
| Time | 2026-05-07 23:40 |
|---|---|
| Airport | Greater Moncton Roméo LeBlanc International Airport (CYQM) |
| Time | Latitude | Longitude | Altitude | Speed | Heading |
|---|---|---|---|---|---|
| 2026-05-07 16:49 | 40.49599 | -3.56884 | 1981 ft | 0 kts | 90° |
| 2026-05-07 17:06 | 40.49599 | -3.56885 | 1976 ft | 1 kts | 90° |
| 2026-05-07 17:07 | 40.49599 | -3.56905 | 1980 ft | 3 kts | 92° |
| 2026-05-07 17:07 | 40.49601 | -3.56931 | 1981 ft | 3 kts | 97° |
| 2026-05-07 17:07 | 40.49604 | -3.56957 | 1977 ft | 3 kts | 104° |
| 2026-05-07 17:07 | 40.49610 | -3.56982 | 1979 ft | 3 kts | 120° |
| 2026-05-07 17:08 | 40.49622 | -3.57000 | 1981 ft | 4 kts | 159° |
| 2026-05-07 17:08 | 40.49629 | -3.57003 | 1981 ft | 0 kts | 180° |
| 2026-05-07 17:13 | 40.49626 | -3.57003 | 1981 ft | 1 kts | 180° |
| 2026-05-07 17:13 | 40.49601 | -3.57003 | 1981 ft | 6 kts | 179° |
| 2026-05-07 17:13 | 40.49543 | -3.57002 | 1980 ft | 10 kts | 179° |
| 2026-05-07 17:13 | 40.49461 | -3.57002 | 1979 ft | 13 kts | 180° |
| 2026-05-07 17:14 | 40.49374 | -3.57002 | 1981 ft | 12 kts | 179° |
| 2026-05-07 17:14 | 40.49302 | -3.57018 | 1981 ft | 8 kts | 222° |
| 2026-05-07 17:14 | 40.49287 | -3.57070 | 1987 ft | 5 kts | 253° |
| 2026-05-07 17:14 | 40.49266 | -3.57109 | 1984 ft | 6 kts | 220° |
| 2026-05-07 17:15 | 40.49224 | -3.57118 | 1989 ft | 7 kts | 176° |
| 2026-05-07 17:15 | 40.49158 | -3.57113 | 1989 ft | 12 kts | 176° |
| 2026-05-07 17:15 | 40.49065 | -3.57113 | 1985 ft | 15 kts | 180° |
| 2026-05-07 17:15 | 40.48961 | -3.57113 | 1985 ft | 15 kts | 180° |
| 2026-05-07 17:16 | 40.48869 | -3.57140 | 1987 ft | 12 kts | 229° |
| 2026-05-07 17:16 | 40.48859 | -3.57237 | 1987 ft | 10 kts | 268° |
| 2026-05-07 17:16 | 40.48849 | -3.57315 | 1989 ft | 8 kts | 242° |
| 2026-05-07 17:16 | 40.48806 | -3.57342 | 1991 ft | 7 kts | 182° |
| 2026-05-07 17:17 | 40.48748 | -3.57344 | 1990 ft | 9 kts | 178° |
| 2026-05-07 17:17 | 40.48691 | -3.57340 | 1994 ft | 7 kts | 177° |
| 2026-05-07 17:17 | 40.48653 | -3.57346 | 1997 ft | 5 kts | 200° |
| 2026-05-07 17:17 | 40.48621 | -3.57381 | 1998 ft | 8 kts | 227° |
| 2026-05-07 17:18 | 40.48576 | -3.57451 | 1997 ft | 12 kts | 233° |
| 2026-05-07 17:18 | 40.48510 | -3.57537 | 1999 ft | 13 kts | 212° |
| 2026-05-07 17:18 | 40.48463 | -3.57564 | 1999 ft | 5 kts | 179° |
| 2026-05-07 17:18 | 40.48442 | -3.57549 | 2000 ft | 2 kts | 146° |
| 2026-05-07 17:19 | 40.48440 | -3.57547 | 2000 ft | 0 kts | 144° |
| 2026-05-07 17:19 | 40.48402 | -3.57511 | 1998 ft | 22 kts | 144° |
| 2026-05-07 17:19 | 40.48135 | -3.57244 | 2008 ft | 73 kts | 141° |
| 2026-05-07 17:19 | 40.47604 | -3.56700 | 2000 ft | 119 kts | 142° |
| 2026-05-07 17:20 | 40.46843 | -3.55927 | 1974 ft | 157 kts | 142° |
| 2026-05-07 17:20 | 40.45903 | -3.54977 | 2103 ft | 177 kts | 142° |
| 2026-05-07 17:20 | 40.44927 | -3.53990 | 2636 ft | 175 kts | 142° |
| 2026-05-07 17:20 | 40.43936 | -3.53023 | 3125 ft | 179 kts | 143° |
| 2026-05-07 17:21 | 40.42921 | -3.52057 | 3623 ft | 181 kts | 144° |
| 2026-05-07 17:21 | 40.41907 | -3.51058 | 4058 ft | 184 kts | 140° |
| 2026-05-07 17:21 | 40.40881 | -3.50004 | 4359 ft | 191 kts | 137° |
| 2026-05-07 17:21 | 40.39840 | -3.48905 | 4795 ft | 190 kts | 137° |
| 2026-05-07 17:22 | 40.38817 | -3.47864 | 5316 ft | 186 kts | 139° |
| 2026-05-07 17:22 | 40.37756 | -3.46805 | 5560 ft | 198 kts | 140° |
| 2026-05-07 17:22 | 40.36626 | -3.45685 | 5798 ft | 209 kts | 142° |
| 2026-05-07 17:22 | 40.35413 | -3.44505 | 6072 ft | 223 kts | 144° |
| 2026-05-07 17:23 | 40.34144 | -3.43292 | 6516 ft | 230 kts | 149° |
| 2026-05-07 17:23 | 40.32619 | -3.42488 | 6778 ft | 246 kts | 169° |
| 2026-05-07 17:23 | 40.30874 | -3.42648 | 7079 ft | 262 kts | 199° |
| 2026-05-07 17:23 | 40.29399 | -3.44102 | 7490 ft | 276 kts | 232° |
| 2026-05-07 17:24 | 40.28855 | -3.45622 | 7843 ft | 283 kts | 255° |
| 2026-05-07 17:24 | 40.28706 | -3.48213 | 8391 ft | 287 kts | 265° |
| 2026-05-07 17:24 | 40.28177 | -3.50708 | 8910 ft | 285 kts | 245° |
| 2026-05-07 17:24 | 40.27784 | -3.53270 | 9427 ft | 291 kts | 269° |
| 2026-05-07 17:25 | 40.27889 | -3.55926 | 10051 ft | 293 kts | 273° |
| 2026-05-07 17:25 | 40.28040 | -3.58576 | 10679 ft | 291 kts | 272° |
| 2026-05-07 17:25 | 40.28177 | -3.61224 | 11267 ft | 291 kts | 272° |
| 2026-05-07 17:25 | 40.28302 | -3.63871 | 11860 ft | 291 kts | 272° |
| 2026-05-07 17:26 | 40.28417 | -3.66520 | 12331 ft | 295 kts | 272° |
| 2026-05-07 17:26 | 40.28530 | -3.69253 | 12617 ft | 305 kts | 272° |
| 2026-05-07 17:26 | 40.28643 | -3.72081 | 12854 ft | 317 kts | 272° |
| 2026-05-07 17:26 | 40.28758 | -3.74980 | 13065 ft | 329 kts | 272° |
| 2026-05-07 17:27 | 40.28877 | -3.78024 | 13276 ft | 340 kts | 272° |
| 2026-05-07 17:27 | 40.28998 | -3.81158 | 13515 ft | 349 kts | 272° |
| 2026-05-07 17:27 | 40.29122 | -3.84369 | 13876 ft | 354 kts | 271° |
| 2026-05-07 17:27 | 40.29245 | -3.87602 | 14297 ft | 357 kts | 271° |
| 2026-05-07 17:28 | 40.29368 | -3.90862 | 14707 ft | 360 kts | 271° |
| 2026-05-07 17:28 | 40.29491 | -3.94148 | 15141 ft | 362 kts | 271° |
| 2026-05-07 17:28 | 40.29614 | -3.97454 | 15570 ft | 364 kts | 271° |
| 2026-05-07 17:28 | 40.29736 | -4.00768 | 15998 ft | 366 kts | 271° |
| 2026-05-07 17:29 | 40.29858 | -4.04104 | 16439 ft | 367 kts | 271° |
| 2026-05-07 17:29 | 40.29980 | -4.07457 | 16864 ft | 369 kts | 270° |
| 2026-05-07 17:29 | 40.30105 | -4.10832 | 17286 ft | 372 kts | 271° |
| 2026-05-07 17:29 | 40.30483 | -4.14195 | 17727 ft | 377 kts | 283° |
| 2026-05-07 17:30 | 40.31582 | -4.17338 | 18173 ft | 386 kts | 301° |
| 2026-05-07 17:30 | 40.33381 | -4.19981 | 18627 ft | 391 kts | 313° |
| 2026-05-07 17:30 | 40.35409 | -4.22389 | 18915 ft | 395 kts | 315° |
| 2026-05-07 17:30 | 40.37493 | -4.24797 | 19195 ft | 401 kts | 315° |
| 2026-05-07 17:31 | 40.39585 | -4.27226 | 19592 ft | 403 kts | 315° |
| 2026-05-07 17:31 | 40.41657 | -4.29648 | 19977 ft | 406 kts | 315° |
| 2026-05-07 17:31 | 40.43771 | -4.32129 | 20357 ft | 409 kts | 315° |
| 2026-05-07 17:31 | 40.45894 | -4.34628 | 20720 ft | 412 kts | 315° |
| 2026-05-07 17:32 | 40.48031 | -4.37147 | 21090 ft | 415 kts | 315° |
| 2026-05-07 17:32 | 40.50187 | -4.39694 | 21450 ft | 417 kts | 315° |
| 2026-05-07 17:32 | 40.52352 | -4.42253 | 21790 ft | 420 kts | 315° |
| 2026-05-07 17:32 | 40.54532 | -4.44833 | 22144 ft | 423 kts | 315° |
| 2026-05-07 17:33 | 40.56728 | -4.47435 | 22465 ft | 426 kts | 315° |
| 2026-05-07 17:33 | 40.58932 | -4.50048 | 22801 ft | 428 kts | 315° |
| 2026-05-07 17:33 | 40.61147 | -4.52677 | 23139 ft | 430 kts | 315° |
| 2026-05-07 17:33 | 40.63376 | -4.55325 | 23476 ft | 433 kts | 315° |
| 2026-05-07 17:34 | 40.65621 | -4.57995 | 23791 ft | 435 kts | 315° |
| 2026-05-07 17:34 | 40.67872 | -4.60675 | 24103 ft | 438 kts | 315° |
| 2026-05-07 17:34 | 40.70132 | -4.63368 | 24427 ft | 439 kts | 315° |
| 2026-05-07 17:34 | 40.72400 | -4.66071 | 24796 ft | 439 kts | 315° |
| 2026-05-07 17:35 | 40.74666 | -4.68776 | 25177 ft | 439 kts | 315° |
| 2026-05-07 17:35 | 40.76934 | -4.71486 | 25536 ft | 440 kts | 315° |
| 2026-05-07 17:35 | 40.79199 | -4.74196 | 25882 ft | 440 kts | 315° |
| 2026-05-07 17:35 | 40.81470 | -4.76914 | 26223 ft | 441 kts | 315° |
| 2026-05-07 17:36 | 40.83743 | -4.79637 | 26563 ft | 441 kts | 315° |
| 2026-05-07 17:36 | 40.86015 | -4.82363 | 26891 ft | 442 kts | 315° |
| 2026-05-07 17:36 | 40.88294 | -4.85100 | 27186 ft | 442 kts | 315° |
| 2026-05-07 17:36 | 40.90569 | -4.87834 | 27495 ft | 442 kts | 315° |
| 2026-05-07 17:37 | 40.92818 | -4.90540 | 27791 ft | 443 kts | 315° |
| 2026-05-07 17:37 | 40.95097 | -4.93284 | 28097 ft | 443 kts | 315° |
| 2026-05-07 17:37 | 40.97381 | -4.96037 | 28388 ft | 444 kts | 315° |
| 2026-05-07 17:37 | 40.99665 | -4.98793 | 28674 ft | 445 kts | 315° |
| 2026-05-07 17:38 | 41.01952 | -5.01555 | 28975 ft | 445 kts | 315° |
| 2026-05-07 17:38 | 41.04240 | -5.04322 | 29235 ft | 445 kts | 315° |
| 2026-05-07 17:38 | 41.06530 | -5.07093 | 29506 ft | 446 kts | 315° |
| 2026-05-07 17:38 | 41.08823 | -5.09872 | 29773 ft | 447 kts | 315° |
| 2026-05-07 17:39 | 41.11116 | -5.12652 | 30031 ft | 447 kts | 315° |
| 2026-05-07 17:39 | 41.13415 | -5.15444 | 30280 ft | 448 kts | 315° |
| 2026-05-07 17:39 | 41.15718 | -5.18243 | 30542 ft | 448 kts | 315° |
| 2026-05-07 17:39 | 41.18019 | -5.21042 | 30766 ft | 449 kts | 315° |
| 2026-05-07 17:40 | 41.20326 | -5.23850 | 30974 ft | 451 kts | 315° |
| 2026-05-07 17:40 | 41.22635 | -5.26663 | 31266 ft | 450 kts | 315° |
| 2026-05-07 17:40 | 41.24937 | -5.29471 | 31595 ft | 448 kts | 315° |
| 2026-05-07 17:40 | 41.27231 | -5.32272 | 31899 ft | 447 kts | 315° |
| 2026-05-07 17:41 | 41.29522 | -5.35073 | 32180 ft | 447 kts | 315° |
| 2026-05-07 17:41 | 41.31800 | -5.37860 | 32504 ft | 445 kts | 315° |
| 2026-05-07 17:41 | 41.34074 | -5.40645 | 32796 ft | 444 kts | 315° |
| 2026-05-07 17:41 | 41.36344 | -5.43428 | 33061 ft | 443 kts | 315° |
| 2026-05-07 17:42 | 41.38610 | -5.46208 | 33338 ft | 442 kts | 315° |
| 2026-05-07 17:42 | 41.40832 | -5.48938 | 33573 ft | 441 kts | 315° |
| 2026-05-07 17:42 | 41.43092 | -5.51717 | 33805 ft | 441 kts | 315° |
| 2026-05-07 17:42 | 41.45345 | -5.54490 | 34060 ft | 440 kts | 315° |
| 2026-05-07 17:43 | 41.47590 | -5.57256 | 34335 ft | 439 kts | 314° |
| 2026-05-07 17:43 | 41.49831 | -5.60024 | 34521 ft | 439 kts | 314° |
| 2026-05-07 17:43 | 41.51957 | -5.62943 | 34623 ft | 439 kts | 308° |
| 2026-05-07 17:43 | 41.53764 | -5.66224 | 34772 ft | 438 kts | 300° |
| 2026-05-07 17:44 | 41.55283 | -5.69737 | 34966 ft | 437 kts | 297° |
| 2026-05-07 17:44 | 41.56692 | -5.73330 | 35115 ft | 437 kts | 295° |
| 2026-05-07 17:44 | 41.58052 | -5.76976 | 35289 ft | 437 kts | 295° |
| 2026-05-07 17:44 | 41.59388 | -5.80624 | 35439 ft | 438 kts | 295° |
| 2026-05-07 17:45 | 41.60729 | -5.84286 | 35574 ft | 439 kts | 295° |
| 2026-05-07 17:45 | 41.62082 | -5.87956 | 35702 ft | 440 kts | 295° |
| 2026-05-07 17:45 | 41.63441 | -5.91616 | 35858 ft | 440 kts | 295° |
| 2026-05-07 17:45 | 41.64806 | -5.95279 | 36010 ft | 440 kts | 295° |
| 2026-05-07 17:46 | 41.66175 | -5.98942 | 36136 ft | 441 kts | 295° |
| 2026-05-07 17:46 | 41.67548 | -6.02613 | 36298 ft | 441 kts | 295° |
| 2026-05-07 17:46 | 41.68922 | -6.06290 | 36455 ft | 441 kts | 295° |
| 2026-05-07 17:46 | 41.70294 | -6.09970 | 36597 ft | 441 kts | 295° |
| 2026-05-07 17:47 | 41.71663 | -6.13646 | 36728 ft | 442 kts | 295° |
| 2026-05-07 17:47 | 41.73033 | -6.17334 | 36850 ft | 442 kts | 295° |
| 2026-05-07 17:47 | 41.74386 | -6.20981 | 36986 ft | 442 kts | 295° |
| 2026-05-07 17:47 | 41.75755 | -6.24673 | 37140 ft | 442 kts | 295° |
| 2026-05-07 17:48 | 41.77122 | -6.28364 | 37285 ft | 442 kts | 295° |
| 2026-05-07 17:48 | 41.78485 | -6.32047 | 37425 ft | 442 kts | 295° |
| 2026-05-07 17:48 | 41.79849 | -6.35740 | 37562 ft | 441 kts | 295° |
| 2026-05-07 17:48 | 41.81208 | -6.39426 | 37697 ft | 441 kts | 295° |
| 2026-05-07 17:49 | 41.82567 | -6.43115 | 37818 ft | 441 kts | 295° |
| 2026-05-07 17:49 | 41.83925 | -6.46808 | 37889 ft | 443 kts | 295° |
| 2026-05-07 17:49 | 41.86652 | -6.54236 | 37892 ft | 444 kts | 295° |
| 2026-05-07 17:50 | 41.89371 | -6.61658 | 37887 ft | 442 kts | 295° |
| 2026-05-07 17:50 | 41.92077 | -6.69066 | 37886 ft | 441 kts | 295° |
| 2026-05-07 17:51 | 41.94763 | -6.76441 | 37888 ft | 439 kts | 295° |
| 2026-05-07 17:51 | 41.97419 | -6.83751 | 37888 ft | 437 kts | 295° |
| 2026-05-07 17:52 | 42.00077 | -6.91083 | 37889 ft | 435 kts | 295° |
| 2026-05-07 17:52 | 42.02720 | -6.98397 | 37887 ft | 435 kts | 295° |
| 2026-05-07 17:53 | 42.05366 | -7.05736 | 37886 ft | 436 kts | 295° |
| 2026-05-07 17:53 | 42.08005 | -7.13077 | 37885 ft | 435 kts | 295° |
| 2026-05-07 17:54 | 42.10634 | -7.20403 | 37890 ft | 433 kts | 295° |
| 2026-05-07 17:54 | 42.13247 | -7.27707 | 37890 ft | 432 kts | 294° |
| 2026-05-07 17:55 | 42.15854 | -7.35015 | 37884 ft | 431 kts | 294° |
| 2026-05-07 17:55 | 42.18445 | -7.42298 | 37886 ft | 430 kts | 295° |
| 2026-05-07 17:56 | 42.21025 | -7.49568 | 37884 ft | 429 kts | 295° |
| 2026-05-07 17:56 | 42.23594 | -7.56822 | 37890 ft | 428 kts | 294° |
| 2026-05-07 17:57 | 42.25726 | -7.62854 | 37886 ft | 428 kts | 294° |
| 2026-05-07 17:57 | 42.28695 | -7.71284 | 37892 ft | 427 kts | 294° |
| 2026-05-07 17:58 | 42.31238 | -7.78524 | 37886 ft | 426 kts | 294° |
| 2026-05-07 17:58 | 42.33774 | -7.85762 | 37891 ft | 426 kts | 294° |
| 2026-05-07 17:59 | 42.36303 | -7.93001 | 37890 ft | 426 kts | 294° |
| 2026-05-07 17:59 | 42.38827 | -8.00243 | 37886 ft | 426 kts | 294° |
| 2026-05-07 18:00 | 42.41342 | -8.07477 | 37888 ft | 425 kts | 294° |
| 2026-05-07 18:00 | 42.43849 | -8.14706 | 37887 ft | 423 kts | 293° |
| 2026-05-07 18:01 | 42.46331 | -8.21880 | 37887 ft | 417 kts | 292° |
| 2026-05-07 18:01 | 42.48775 | -8.28962 | 37888 ft | 414 kts | 292° |
| 2026-05-07 18:02 | 42.52404 | -8.39522 | 37887 ft | 414 kts | 292° |
| 2026-05-07 18:03 | 42.54825 | -8.46588 | 37886 ft | 413 kts | 292° |
| 2026-05-07 18:03 | 42.57243 | -8.53661 | 37890 ft | 412 kts | 292° |
| 2026-05-07 18:04 | 42.59650 | -8.60718 | 37886 ft | 412 kts | 292° |
| 2026-05-07 18:04 | 42.62270 | -8.67672 | 37894 ft | 418 kts | 299° |
| 2026-05-07 18:05 | 42.65477 | -8.74331 | 37886 ft | 424 kts | 300° |
| 2026-05-07 18:05 | 42.68788 | -8.80941 | 37883 ft | 426 kts | 301° |
| 2026-05-07 18:06 | 42.72044 | -8.87657 | 37883 ft | 423 kts | 295° |
| 2026-05-07 18:06 | 42.74605 | -8.94835 | 37892 ft | 422 kts | 291° |
| 2026-05-07 18:07 | 42.77007 | -9.02131 | 37886 ft | 422 kts | 291° |
| 2026-05-07 18:07 | 42.79374 | -9.09449 | 37887 ft | 422 kts | 291° |
| 2026-05-07 18:08 | 42.81741 | -9.16764 | 37889 ft | 422 kts | 290° |
| 2026-05-07 18:08 | 42.84109 | -9.24072 | 37890 ft | 422 kts | 290° |
| 2026-05-07 18:09 | 42.86462 | -9.31344 | 37884 ft | 422 kts | 290° |
| 2026-05-07 18:09 | 42.88827 | -9.38672 | 37887 ft | 422 kts | 290° |
| 2026-05-07 18:10 | 42.91187 | -9.46006 | 37885 ft | 422 kts | 290° |
| 2026-05-07 18:10 | 42.93542 | -9.53348 | 37884 ft | 422 kts | 290° |
| 2026-05-07 18:11 | 42.95895 | -9.60699 | 37888 ft | 422 kts | 290° |
| 2026-05-07 18:11 | 42.98238 | -9.68040 | 37888 ft | 422 kts | 290° |
| 2026-05-07 18:12 | 43.00187 | -9.74162 | 37891 ft | 422 kts | 290° |
| 2026-05-07 18:12 | 43.02523 | -9.81523 | 37891 ft | 422 kts | 290° |
| 2026-05-07 18:13 | 43.04857 | -9.88898 | 37884 ft | 422 kts | 290° |
| 2026-05-07 18:13 | 43.07186 | -9.96276 | 37891 ft | 422 kts | 290° |
| 2026-05-07 18:14 | 43.09496 | -10.03616 | 37890 ft | 423 kts | 290° |
| 2026-05-07 18:14 | 43.11823 | -10.11029 | 37886 ft | 425 kts | 289° |
| 2026-05-07 18:15 | 43.14152 | -10.18468 | 37891 ft | 425 kts | 289° |
| 2026-05-07 18:15 | 43.16474 | -10.25906 | 37885 ft | 425 kts | 289° |
| 2026-05-07 18:16 | 43.18795 | -10.33363 | 37887 ft | 425 kts | 289° |
| 2026-05-07 18:16 | 43.21097 | -10.40774 | 37891 ft | 425 kts | 289° |
| 2026-05-07 18:17 | 43.23424 | -10.48292 | 37887 ft | 426 kts | 289° |
| 2026-05-07 18:17 | 43.25718 | -10.55725 | 37890 ft | 426 kts | 289° |
| 2026-05-07 18:18 | 43.28022 | -10.63214 | 37887 ft | 426 kts | 289° |
| 2026-05-07 18:18 | 43.30325 | -10.70718 | 37890 ft | 427 kts | 289° |
| 2026-05-07 18:19 | 43.32630 | -10.78254 | 37888 ft | 427 kts | 289° |
| 2026-05-07 18:19 | 43.34929 | -10.85788 | 37885 ft | 428 kts | 289° |
| 2026-05-07 18:20 | 43.37227 | -10.93340 | 37884 ft | 428 kts | 289° |
| 2026-05-07 18:20 | 43.39505 | -11.00850 | 37884 ft | 428 kts | 288° |
| 2026-05-07 18:21 | 43.41794 | -11.08421 | 37887 ft | 429 kts | 288° |
| 2026-05-07 18:21 | 43.44083 | -11.16012 | 37886 ft | 429 kts | 288° |
| 2026-05-07 18:22 | 43.46366 | -11.23607 | 37886 ft | 430 kts | 288° |
| 2026-05-07 18:22 | 43.48649 | -11.31219 | 37885 ft | 430 kts | 288° |
| 2026-05-07 18:23 | 43.50930 | -11.38854 | 37889 ft | 430 kts | 288° |
| 2026-05-07 18:23 | 43.53206 | -11.46494 | 37885 ft | 431 kts | 288° |
| 2026-05-07 18:24 | 43.55479 | -11.54144 | 37890 ft | 431 kts | 288° |
| 2026-05-07 18:24 | 43.57751 | -11.61813 | 37890 ft | 431 kts | 288° |
| 2026-05-07 18:25 | 43.59999 | -11.69426 | 37892 ft | 431 kts | 288° |
| 2026-05-07 18:25 | 43.62261 | -11.77112 | 37885 ft | 432 kts | 288° |
| 2026-05-07 18:26 | 43.64533 | -11.84792 | 37885 ft | 433 kts | 288° |
| 2026-05-07 18:26 | 43.66850 | -11.92461 | 37885 ft | 433 kts | 288° |
| 2026-05-07 18:27 | 43.69170 | -12.00142 | 37892 ft | 433 kts | 288° |
| 2026-05-07 18:27 | 43.71462 | -12.07782 | 37891 ft | 433 kts | 288° |
| 2026-05-07 18:28 | 43.73765 | -12.15498 | 37900 ft | 434 kts | 288° |
| 2026-05-07 18:28 | 43.76061 | -12.23213 | 37906 ft | 434 kts | 288° |
| 2026-05-07 18:29 | 43.78353 | -12.30939 | 37907 ft | 434 kts | 288° |
| 2026-05-07 18:29 | 43.80645 | -12.38688 | 37906 ft | 434 kts | 288° |
| 2026-05-07 18:30 | 43.82930 | -12.46439 | 37906 ft | 435 kts | 288° |
| 2026-05-07 18:30 | 43.85197 | -12.54150 | 37906 ft | 435 kts | 288° |
| 2026-05-07 18:31 | 43.87478 | -12.61934 | 37906 ft | 436 kts | 288° |
| 2026-05-07 18:31 | 43.89757 | -12.69735 | 37906 ft | 437 kts | 288° |
| 2026-05-07 18:32 | 43.92040 | -12.77572 | 37906 ft | 438 kts | 287° |
| 2026-05-07 18:32 | 43.94322 | -12.85431 | 37906 ft | 439 kts | 287° |
| 2026-05-07 18:33 | 43.96602 | -12.93306 | 37900 ft | 440 kts | 287° |
| 2026-05-07 18:33 | 43.98883 | -13.01206 | 37906 ft | 442 kts | 287° |
| 2026-05-07 18:34 | 44.01163 | -13.09139 | 37906 ft | 443 kts | 288° |
| 2026-05-07 18:34 | 44.03426 | -13.17033 | 37906 ft | 443 kts | 288° |
| 2026-05-07 18:35 | 44.05702 | -13.24997 | 37906 ft | 444 kts | 287° |
| 2026-05-07 18:35 | 44.07978 | -13.32986 | 37906 ft | 445 kts | 287° |
| 2026-05-07 18:36 | 44.10253 | -13.40995 | 37906 ft | 446 kts | 287° |
| 2026-05-07 18:36 | 44.12530 | -13.49039 | 37906 ft | 447 kts | 287° |
| 2026-05-07 18:37 | 44.14806 | -13.57107 | 37906 ft | 447 kts | 287° |
| 2026-05-07 18:37 | 44.17077 | -13.65181 | 37907 ft | 448 kts | 287° |
| 2026-05-07 18:38 | 44.19345 | -13.73273 | 37906 ft | 449 kts | 287° |
| 2026-05-07 18:38 | 44.21614 | -13.81392 | 37906 ft | 449 kts | 287° |
| 2026-05-07 18:39 | 44.23863 | -13.89471 | 37906 ft | 450 kts | 287° |
| 2026-05-07 18:39 | 44.26119 | -13.97596 | 37906 ft | 449 kts | 287° |
| 2026-05-07 18:40 | 44.28369 | -14.05731 | 37906 ft | 449 kts | 287° |
| 2026-05-07 18:40 | 44.30618 | -14.13889 | 37908 ft | 450 kts | 287° |
| 2026-05-07 18:41 | 44.32862 | -14.22057 | 37905 ft | 450 kts | 287° |
| 2026-05-07 18:41 | 44.35100 | -14.30229 | 37906 ft | 450 kts | 287° |
| 2026-05-07 18:42 | 44.37317 | -14.38360 | 37906 ft | 451 kts | 287° |
| 2026-05-07 18:42 | 44.39551 | -14.46569 | 37906 ft | 452 kts | 287° |
| 2026-05-07 18:43 | 44.41781 | -14.54792 | 37915 ft | 452 kts | 287° |
| 2026-05-07 18:43 | 44.44005 | -14.63026 | 37915 ft | 453 kts | 287° |
| 2026-05-07 18:44 | 44.46230 | -14.71295 | 37915 ft | 454 kts | 287° |
| 2026-05-07 18:44 | 44.48450 | -14.79567 | 37915 ft | 455 kts | 287° |
| 2026-05-07 18:45 | 44.50670 | -14.87866 | 37916 ft | 455 kts | 287° |
| 2026-05-07 18:45 | 44.52891 | -14.96202 | 37916 ft | 456 kts | 287° |
| 2026-05-07 18:46 | 44.55092 | -15.04489 | 37915 ft | 457 kts | 287° |
| 2026-05-07 18:46 | 44.57291 | -15.12872 | 37916 ft | 458 kts | 287° |
| 2026-05-07 18:47 | 44.59477 | -15.21290 | 37916 ft | 459 kts | 286° |
| 2026-05-07 18:47 | 44.61664 | -15.29730 | 37916 ft | 460 kts | 286° |
| 2026-05-07 18:48 | 44.63851 | -15.38187 | 37915 ft | 461 kts | 286° |
| 2026-05-07 18:48 | 44.66036 | -15.46665 | 37915 ft | 462 kts | 286° |
| 2026-05-07 18:49 | 44.68216 | -15.55157 | 37916 ft | 462 kts | 286° |
| 2026-05-07 18:49 | 44.70379 | -15.63610 | 37915 ft | 463 kts | 286° |
| 2026-05-07 18:50 | 44.72557 | -15.72151 | 37915 ft | 463 kts | 286° |
| 2026-05-07 18:50 | 44.74725 | -15.80683 | 37915 ft | 464 kts | 286° |
| 2026-05-07 18:51 | 44.76891 | -15.89239 | 37915 ft | 464 kts | 286° |
| 2026-05-07 18:51 | 44.79036 | -15.97746 | 37916 ft | 464 kts | 286° |
| 2026-05-07 18:52 | 44.81186 | -16.06306 | 37914 ft | 464 kts | 286° |
| 2026-05-07 18:52 | 44.83339 | -16.14914 | 37923 ft | 466 kts | 286° |
| 2026-05-07 18:53 | 44.85490 | -16.23539 | 37927 ft | 467 kts | 286° |
| 2026-05-07 18:53 | 44.87636 | -16.32176 | 37923 ft | 467 kts | 286° |
| 2026-05-07 18:54 | 44.89774 | -16.40816 | 37907 ft | 467 kts | 286° |
| 2026-05-07 18:54 | 44.91905 | -16.49462 | 37906 ft | 466 kts | 286° |
| 2026-05-07 18:55 | 44.94029 | -16.58108 | 37907 ft | 466 kts | 286° |
| 2026-05-07 18:55 | 44.96143 | -16.66749 | 37906 ft | 466 kts | 286° |
| 2026-05-07 18:56 | 44.98252 | -16.75406 | 37906 ft | 466 kts | 286° |
| 2026-05-07 18:56 | 45.00355 | -16.84069 | 37907 ft | 466 kts | 285° |
| 2026-05-07 18:57 | 45.02440 | -16.92686 | 37906 ft | 466 kts | 286° |
| 2026-05-07 18:57 | 45.04527 | -17.01357 | 37906 ft | 466 kts | 285° |
| 2026-05-07 18:58 | 45.06612 | -17.10044 | 37905 ft | 466 kts | 285° |
| 2026-05-07 18:58 | 45.08691 | -17.18741 | 37906 ft | 466 kts | 285° |
| 2026-05-07 18:59 | 45.10764 | -17.27448 | 37905 ft | 467 kts | 285° |
| 2026-05-07 18:59 | 45.12482 | -17.34684 | 37908 ft | 466 kts | 285° |
| 2026-05-07 19:00 | 45.14543 | -17.43402 | 37906 ft | 466 kts | 285° |
| 2026-05-07 19:00 | 45.16929 | -17.53538 | 37906 ft | 466 kts | 285° |
| 2026-05-07 19:01 | 45.18644 | -17.60853 | 37908 ft | 466 kts | 285° |
| 2026-05-07 19:01 | 45.20683 | -17.69582 | 37909 ft | 466 kts | 285° |
| 2026-05-07 19:02 | 45.22702 | -17.78261 | 37906 ft | 466 kts | 285° |
| 2026-05-07 19:02 | 45.24728 | -17.86999 | 37906 ft | 466 kts | 285° |
| 2026-05-07 19:03 | 45.26745 | -17.95739 | 37905 ft | 466 kts | 285° |
| 2026-05-07 19:03 | 45.28754 | -18.04478 | 37905 ft | 465 kts | 285° |
| 2026-05-07 19:04 | 45.30762 | -18.13248 | 37906 ft | 467 kts | 285° |
| 2026-05-07 19:04 | 45.32764 | -18.22027 | 37906 ft | 467 kts | 285° |
| 2026-05-07 19:05 | 45.34760 | -18.30811 | 37906 ft | 467 kts | 285° |
| 2026-05-07 19:05 | 45.36749 | -18.39602 | 37905 ft | 467 kts | 285° |
| 2026-05-07 19:06 | 45.38730 | -18.48342 | 37906 ft | 467 kts | 285° |
| 2026-05-07 19:06 | 45.41719 | -18.61567 | 37906 ft | 468 kts | 285° |
| 2026-05-07 19:07 | 45.43702 | -18.70391 | 37906 ft | 468 kts | 285° |
| 2026-05-07 19:07 | 45.45677 | -18.79222 | 37905 ft | 468 kts | 285° |
| 2026-05-07 19:08 | 45.47650 | -18.88077 | 37905 ft | 469 kts | 285° |
| 2026-05-07 19:08 | 45.49604 | -18.96879 | 37907 ft | 469 kts | 285° |
| 2026-05-07 19:09 | 45.51565 | -19.05756 | 37907 ft | 469 kts | 285° |
| 2026-05-07 19:09 | 45.53520 | -19.14645 | 37906 ft | 469 kts | 285° |
| 2026-05-07 19:10 | 45.55466 | -19.23532 | 37906 ft | 470 kts | 285° |
| 2026-05-07 19:10 | 45.57409 | -19.32444 | 37906 ft | 470 kts | 285° |
| 2026-05-07 19:11 | 45.59345 | -19.41355 | 37908 ft | 470 kts | 285° |
| 2026-05-07 19:11 | 45.61274 | -19.50274 | 37905 ft | 470 kts | 285° |
| 2026-05-07 19:12 | 45.63183 | -19.59138 | 37906 ft | 470 kts | 285° |
| 2026-05-07 19:12 | 45.65099 | -19.68070 | 37907 ft | 469 kts | 285° |
| 2026-05-07 19:13 | 45.67009 | -19.77014 | 37906 ft | 469 kts | 285° |
| 2026-05-07 19:13 | 45.68906 | -19.85937 | 37905 ft | 469 kts | 285° |
| 2026-05-07 19:14 | 45.70796 | -19.94868 | 37906 ft | 469 kts | 285° |
| 2026-05-07 19:14 | 45.72678 | -20.03797 | 37906 ft | 469 kts | 284° |
| 2026-05-07 19:15 | 45.74544 | -20.12691 | 37908 ft | 469 kts | 284° |
| 2026-05-07 19:15 | 45.76413 | -20.21638 | 37907 ft | 469 kts | 284° |
| 2026-05-07 19:16 | 45.78276 | -20.30596 | 37907 ft | 469 kts | 284° |
| 2026-05-07 19:16 | 45.80133 | -20.39571 | 37916 ft | 469 kts | 284° |
| 2026-05-07 19:17 | 45.81983 | -20.48541 | 37916 ft | 470 kts | 284° |
| 2026-05-07 19:17 | 45.83819 | -20.57489 | 37915 ft | 470 kts | 284° |
| 2026-05-07 19:18 | 45.85657 | -20.66482 | 37916 ft | 470 kts | 284° |
| 2026-05-07 19:18 | 45.87493 | -20.75514 | 37925 ft | 471 kts | 284° |
| 2026-05-07 19:19 | 45.89321 | -20.84544 | 37926 ft | 471 kts | 284° |
| 2026-05-07 19:19 | 45.91146 | -20.93604 | 37925 ft | 472 kts | 284° |
| 2026-05-07 19:20 | 45.92963 | -21.02657 | 37922 ft | 472 kts | 285° |
| 2026-05-07 19:20 | 45.94764 | -21.11673 | 37922 ft | 472 kts | 285° |
| 2026-05-07 19:21 | 45.96569 | -21.20749 | 37927 ft | 472 kts | 285° |
| 2026-05-07 19:21 | 45.98362 | -21.29823 | 37917 ft | 472 kts | 285° |
| 2026-05-07 19:22 | 46.00150 | -21.38923 | 37922 ft | 472 kts | 285° |
| 2026-05-07 19:22 | 46.01932 | -21.48009 | 37920 ft | 470 kts | 285° |
| 2026-05-07 19:23 | 46.03700 | -21.57058 | 37927 ft | 469 kts | 285° |
| 2026-05-07 19:23 | 46.05459 | -21.66112 | 37921 ft | 469 kts | 285° |
| 2026-05-07 19:24 | 46.07203 | -21.75120 | 37929 ft | 471 kts | 285° |
| 2026-05-07 19:24 | 46.08956 | -21.84210 | 37927 ft | 471 kts | 285° |
| 2026-05-07 19:25 | 46.10701 | -21.93306 | 37920 ft | 471 kts | 285° |
| 2026-05-07 19:25 | 46.12439 | -22.02409 | 37927 ft | 470 kts | 285° |
| 2026-05-07 19:26 | 46.14170 | -22.11513 | 37923 ft | 471 kts | 285° |
| 2026-05-07 19:26 | 46.15896 | -22.20629 | 37926 ft | 471 kts | 284° |
| 2026-05-07 19:27 | 46.17610 | -22.29738 | 37927 ft | 470 kts | 284° |
| 2026-05-07 19:27 | 46.19319 | -22.38847 | 37924 ft | 470 kts | 284° |
| 2026-05-07 19:28 | 46.21004 | -22.47897 | 37925 ft | 469 kts | 284° |
| 2026-05-07 19:28 | 46.22693 | -22.56998 | 37923 ft | 468 kts | 284° |
| 2026-05-07 19:29 | 46.24373 | -22.66095 | 37922 ft | 468 kts | 284° |
| 2026-05-07 19:29 | 46.26043 | -22.75182 | 37935 ft | 468 kts | 284° |
| 2026-05-07 19:30 | 46.27705 | -22.84269 | 37941 ft | 468 kts | 284° |
| 2026-05-07 19:30 | 46.29359 | -22.93356 | 37938 ft | 467 kts | 284° |
| 2026-05-07 19:31 | 46.31005 | -23.02449 | 37947 ft | 466 kts | 285° |
| 2026-05-07 19:31 | 46.32640 | -23.11522 | 37947 ft | 466 kts | 285° |
| 2026-05-07 19:32 | 46.34266 | -23.20594 | 37947 ft | 466 kts | 285° |
| 2026-05-07 19:32 | 46.35887 | -23.29683 | 37947 ft | 466 kts | 285° |
| 2026-05-07 19:33 | 46.37488 | -23.38704 | 37945 ft | 466 kts | 285° |
| 2026-05-07 19:33 | 46.39095 | -23.47798 | 37944 ft | 466 kts | 285° |
| 2026-05-07 19:34 | 46.40691 | -23.56885 | 37945 ft | 466 kts | 285° |
| 2026-05-07 19:34 | 46.42282 | -23.65987 | 37936 ft | 466 kts | 285° |
| 2026-05-07 19:35 | 46.43866 | -23.75097 | 37935 ft | 466 kts | 285° |
| 2026-05-07 19:35 | 46.45442 | -23.84208 | 37932 ft | 466 kts | 285° |
| 2026-05-07 19:36 | 46.47012 | -23.93331 | 37935 ft | 466 kts | 285° |
| 2026-05-07 19:36 | 46.48575 | -24.02460 | 37935 ft | 466 kts | 285° |
| 2026-05-07 19:37 | 46.50133 | -24.11603 | 37941 ft | 466 kts | 285° |
| 2026-05-07 19:37 | 46.51681 | -24.20744 | 37947 ft | 466 kts | 285° |
| 2026-05-07 19:38 | 46.53221 | -24.29879 | 37940 ft | 465 kts | 285° |
| 2026-05-07 19:38 | 46.54750 | -24.38999 | 37944 ft | 465 kts | 285° |
| 2026-05-07 19:39 | 46.56264 | -24.48075 | 37947 ft | 465 kts | 285° |
| 2026-05-07 19:39 | 46.57533 | -24.55726 | 37947 ft | 465 kts | 285° |
| 2026-05-07 19:40 | 46.59285 | -24.66340 | 37952 ft | 464 kts | 285° |
| 2026-05-07 19:40 | 46.60784 | -24.75470 | 37958 ft | 464 kts | 285° |
| 2026-05-07 19:41 | 46.62273 | -24.84598 | 37946 ft | 463 kts | 285° |
| 2026-05-07 19:41 | 46.63753 | -24.93713 | 37955 ft | 463 kts | 285° |
| 2026-05-07 19:42 | 46.65226 | -25.02838 | 37945 ft | 463 kts | 285° |
| 2026-05-07 19:42 | 46.66693 | -25.11979 | 37950 ft | 463 kts | 285° |
| 2026-05-07 19:43 | 46.68142 | -25.21048 | 37956 ft | 462 kts | 285° |
| 2026-05-07 19:43 | 46.69593 | -25.30184 | 37923 ft | 462 kts | 285° |
| 2026-05-07 19:44 | 46.71030 | -25.39318 | 37927 ft | 463 kts | 285° |
| 2026-05-07 19:44 | 46.72448 | -25.48464 | 37927 ft | 463 kts | 285° |
| 2026-05-07 19:45 | 46.73859 | -25.57610 | 37927 ft | 462 kts | 285° |
| 2026-05-07 19:45 | 46.75266 | -25.66768 | 37927 ft | 463 kts | 285° |
| 2026-05-07 19:46 | 46.76667 | -25.75938 | 37927 ft | 463 kts | 285° |
| 2026-05-07 19:46 | 46.77826 | -25.83564 | 37923 ft | 463 kts | 285° |
| 2026-05-07 19:47 | 46.79437 | -25.94222 | 37924 ft | 462 kts | 285° |
| 2026-05-07 19:47 | 46.80816 | -26.03402 | 37921 ft | 463 kts | 285° |
| 2026-05-07 19:48 | 46.81955 | -26.11026 | 37920 ft | 462 kts | 285° |
| 2026-05-07 19:48 | 46.83316 | -26.20189 | 37927 ft | 462 kts | 285° |
| 2026-05-07 19:49 | 46.84672 | -26.29362 | 37936 ft | 461 kts | 285° |
| 2026-05-07 19:49 | 46.86017 | -26.38525 | 37953 ft | 461 kts | 285° |
| 2026-05-07 19:50 | 46.87355 | -26.47695 | 37958 ft | 461 kts | 285° |
| 2026-05-07 19:50 | 46.88685 | -26.56870 | 37957 ft | 461 kts | 285° |
| 2026-05-07 19:51 | 46.90007 | -26.66035 | 37955 ft | 461 kts | 285° |
| 2026-05-07 19:51 | 46.91322 | -26.75196 | 37958 ft | 460 kts | 285° |
| 2026-05-07 19:52 | 46.92628 | -26.84370 | 37951 ft | 460 kts | 285° |
| 2026-05-07 19:52 | 46.93928 | -26.93545 | 37955 ft | 460 kts | 285° |
| 2026-05-07 19:53 | 46.95211 | -27.02663 | 37951 ft | 459 kts | 285° |
| 2026-05-07 19:53 | 46.96502 | -27.11892 | 37950 ft | 460 kts | 285° |
| 2026-05-07 19:54 | 46.97772 | -27.21025 | 37980 ft | 460 kts | 285° |
| 2026-05-07 19:54 | 46.99040 | -27.30210 | 38013 ft | 460 kts | 285° |
| 2026-05-07 19:55 | 47.00302 | -27.39407 | 38028 ft | 459 kts | 285° |
| 2026-05-07 19:55 | 47.01555 | -27.48581 | 38026 ft | 460 kts | 285° |
| 2026-05-07 19:56 | 47.02801 | -27.57773 | 38026 ft | 460 kts | 285° |
| 2026-05-07 19:56 | 47.04041 | -27.66983 | 38027 ft | 460 kts | 285° |
| 2026-05-07 19:57 | 47.05278 | -27.76204 | 38029 ft | 461 kts | 285° |
| 2026-05-07 19:57 | 47.06502 | -27.85419 | 38028 ft | 460 kts | 285° |
| 2026-05-07 19:58 | 47.07717 | -27.94637 | 38025 ft | 460 kts | 285° |
| 2026-05-07 19:58 | 47.08926 | -28.03852 | 38026 ft | 460 kts | 285° |
| 2026-05-07 19:59 | 47.10120 | -28.13016 | 38026 ft | 459 kts | 285° |
| 2026-05-07 19:59 | 47.11316 | -28.22249 | 38028 ft | 458 kts | 285° |
| 2026-05-07 20:00 | 47.12504 | -28.31465 | 38025 ft | 459 kts | 285° |
| 2026-05-07 20:00 | 47.13690 | -28.40672 | 38026 ft | 458 kts | 285° |
| 2026-05-07 20:01 | 47.14851 | -28.49793 | 38029 ft | 458 kts | 285° |
| 2026-05-07 20:01 | 47.16008 | -28.58995 | 38026 ft | 457 kts | 285° |
| 2026-05-07 20:02 | 47.17149 | -28.68190 | 38026 ft | 457 kts | 285° |
| 2026-05-07 20:02 | 47.18294 | -28.77394 | 38026 ft | 458 kts | 285° |
| 2026-05-07 20:03 | 47.19427 | -28.86548 | 38026 ft | 458 kts | 285° |
| 2026-05-07 20:03 | 47.20555 | -28.95745 | 38026 ft | 457 kts | 285° |
| 2026-05-07 20:04 | 47.21664 | -29.04938 | 38027 ft | 456 kts | 285° |
| 2026-05-07 20:04 | 47.22762 | -29.14129 | 38027 ft | 456 kts | 285° |
| 2026-05-07 20:05 | 47.23857 | -29.23319 | 38026 ft | 455 kts | 285° |
| 2026-05-07 20:05 | 47.24946 | -29.32493 | 38030 ft | 455 kts | 285° |
| 2026-05-07 20:06 | 47.26025 | -29.41663 | 38045 ft | 455 kts | 285° |
| 2026-05-07 20:06 | 47.27095 | -29.50845 | 38055 ft | 454 kts | 285° |
| 2026-05-07 20:07 | 47.28148 | -29.59955 | 38054 ft | 454 kts | 285° |
| 2026-05-07 20:07 | 47.29197 | -29.69113 | 38054 ft | 453 kts | 285° |
| 2026-05-07 20:08 | 47.30242 | -29.78258 | 38054 ft | 452 kts | 285° |
| 2026-05-07 20:08 | 47.31279 | -29.87402 | 38055 ft | 452 kts | 285° |
| 2026-05-07 20:09 | 47.32304 | -29.96523 | 38054 ft | 451 kts | 285° |
| 2026-05-07 20:10 | 47.33821 | -30.10136 | 38054 ft | 450 kts | 285° |
| 2026-05-07 20:10 | 47.34825 | -30.19235 | 38055 ft | 450 kts | 285° |
| 2026-05-07 20:11 | 47.35824 | -30.28337 | 38054 ft | 449 kts | 285° |
| 2026-05-07 20:11 | 47.36812 | -30.37434 | 38054 ft | 449 kts | 285° |
| 2026-05-07 20:12 | 47.37794 | -30.46545 | 38054 ft | 450 kts | 285° |
| 2026-05-07 20:12 | 47.38769 | -30.55653 | 38054 ft | 449 kts | 285° |
| 2026-05-07 20:13 | 47.39735 | -30.64757 | 38054 ft | 449 kts | 285° |
| 2026-05-07 20:13 | 47.40695 | -30.73867 | 38054 ft | 448 kts | 285° |
| 2026-05-07 20:14 | 47.41649 | -30.82968 | 38054 ft | 448 kts | 285° |
| 2026-05-07 20:14 | 47.42585 | -30.92012 | 38055 ft | 448 kts | 285° |
| 2026-05-07 20:15 | 47.43520 | -31.01105 | 38054 ft | 447 kts | 285° |
| 2026-05-07 20:15 | 47.44448 | -31.10206 | 38055 ft | 448 kts | 285° |
| 2026-05-07 20:16 | 47.45370 | -31.19308 | 38062 ft | 448 kts | 285° |
| 2026-05-07 20:16 | 47.46284 | -31.28426 | 38096 ft | 448 kts | 285° |
| 2026-05-07 20:17 | 47.47190 | -31.37532 | 38108 ft | 447 kts | 285° |
| 2026-05-07 20:17 | 47.48088 | -31.46624 | 38109 ft | 447 kts | 285° |
| 2026-05-07 20:18 | 47.48977 | -31.55711 | 38109 ft | 447 kts | 285° |
| 2026-05-07 20:18 | 47.49860 | -31.64809 | 38109 ft | 446 kts | 285° |
| 2026-05-07 20:19 | 47.50738 | -31.73904 | 38109 ft | 446 kts | 285° |
| 2026-05-07 20:19 | 47.51600 | -31.82934 | 38109 ft | 446 kts | 284° |
| 2026-05-07 20:20 | 47.52461 | -31.92020 | 38107 ft | 445 kts | 284° |
| 2026-05-07 20:20 | 47.53314 | -32.01101 | 38074 ft | 445 kts | 284° |
| 2026-05-07 20:21 | 47.54158 | -32.10187 | 38073 ft | 445 kts | 284° |
| 2026-05-07 20:21 | 47.54995 | -32.19265 | 38072 ft | 445 kts | 284° |
| 2026-05-07 20:22 | 47.55824 | -32.28351 | 38073 ft | 445 kts | 284° |
| 2026-05-07 20:22 | 47.56647 | -32.37446 | 38073 ft | 445 kts | 284° |
| 2026-05-07 20:23 | 47.57458 | -32.46475 | 38073 ft | 445 kts | 284° |
| 2026-05-07 20:23 | 47.58268 | -32.55580 | 38073 ft | 445 kts | 284° |
| 2026-05-07 20:24 | 47.59095 | -32.64667 | 38073 ft | 445 kts | 285° |
| 2026-05-07 20:24 | 47.59936 | -32.73740 | 38073 ft | 445 kts | 284° |
| 2026-05-07 20:25 | 47.60769 | -32.82817 | 38072 ft | 445 kts | 284° |
| 2026-05-07 20:25 | 47.61592 | -32.91910 | 38073 ft | 445 kts | 284° |
| 2026-05-07 20:26 | 47.62407 | -33.01003 | 38082 ft | 445 kts | 284° |
| 2026-05-07 20:26 | 47.63208 | -33.10048 | 38082 ft | 445 kts | 284° |
| 2026-05-07 20:27 | 47.64006 | -33.19146 | 38082 ft | 444 kts | 284° |
| 2026-05-07 20:27 | 47.64798 | -33.28238 | 38082 ft | 444 kts | 284° |
| 2026-05-07 20:28 | 47.65581 | -33.37321 | 38082 ft | 444 kts | 284° |
| 2026-05-07 20:28 | 47.66356 | -33.46404 | 38082 ft | 443 kts | 284° |
| 2026-05-07 20:29 | 47.67125 | -33.55482 | 38082 ft | 443 kts | 284° |
| 2026-05-07 20:29 | 47.67886 | -33.64559 | 38082 ft | 443 kts | 284° |
| 2026-05-07 20:30 | 47.68639 | -33.73640 | 38082 ft | 443 kts | 284° |
| 2026-05-07 20:30 | 47.69380 | -33.82659 | 38082 ft | 443 kts | 284° |
| 2026-05-07 20:31 | 47.70119 | -33.91732 | 38082 ft | 443 kts | 284° |
| 2026-05-07 20:31 | 47.70849 | -34.00809 | 38082 ft | 443 kts | 284° |
| 2026-05-07 20:32 | 47.71573 | -34.09884 | 38082 ft | 442 kts | 284° |
| 2026-05-07 20:32 | 47.72291 | -34.18964 | 38082 ft | 442 kts | 284° |
| 2026-05-07 20:33 | 47.72997 | -34.28008 | 38082 ft | 443 kts | 284° |
| 2026-05-07 20:33 | 47.73705 | -34.37163 | 38082 ft | 443 kts | 284° |
| 2026-05-07 20:34 | 47.74397 | -34.46209 | 38082 ft | 444 kts | 284° |
| 2026-05-07 20:34 | 47.75087 | -34.55331 | 38082 ft | 444 kts | 284° |
| 2026-05-07 20:35 | 47.75770 | -34.64458 | 38082 ft | 445 kts | 284° |
| 2026-05-07 20:35 | 47.76448 | -34.73603 | 38082 ft | 445 kts | 284° |
| 2026-05-07 20:36 | 47.77118 | -34.82759 | 38082 ft | 445 kts | 283° |
| 2026-05-07 20:36 | 47.77781 | -34.91919 | 38082 ft | 446 kts | 283° |
| 2026-05-07 20:37 | 47.78435 | -35.01040 | 38081 ft | 446 kts | 283° |
| 2026-05-07 20:37 | 47.78979 | -35.08722 | 38082 ft | 446 kts | 283° |
| 2026-05-07 20:38 | 47.79623 | -35.17906 | 38082 ft | 447 kts | 283° |
| 2026-05-07 20:38 | 47.80256 | -35.27041 | 38082 ft | 447 kts | 283° |
| 2026-05-07 20:39 | 47.80886 | -35.36237 | 38082 ft | 447 kts | 283° |
| 2026-05-07 20:39 | 47.81510 | -35.45435 | 38082 ft | 447 kts | 283° |
| 2026-05-07 20:40 | 47.82125 | -35.54652 | 38082 ft | 447 kts | 283° |
| 2026-05-07 20:40 | 47.82734 | -35.63872 | 38073 ft | 448 kts | 283° |
| 2026-05-07 20:41 | 47.83336 | -35.73100 | 38073 ft | 448 kts | 283° |
| 2026-05-07 20:41 | 47.83929 | -35.82317 | 38073 ft | 447 kts | 283° |
| 2026-05-07 20:42 | 47.84516 | -35.91538 | 38072 ft | 447 kts | 283° |
| 2026-05-07 20:42 | 47.85091 | -36.00686 | 38073 ft | 446 kts | 283° |
| 2026-05-07 20:43 | 47.85662 | -36.09896 | 38073 ft | 446 kts | 283° |
| 2026-05-07 20:43 | 47.86224 | -36.19100 | 38073 ft | 446 kts | 283° |
| 2026-05-07 20:44 | 47.86781 | -36.28322 | 38073 ft | 447 kts | 282° |
| 2026-05-07 20:44 | 47.87308 | -36.37562 | 38073 ft | 448 kts | 282° |
| 2026-05-07 20:45 | 47.87810 | -36.46823 | 38072 ft | 448 kts | 282° |
| 2026-05-07 20:45 | 47.88306 | -36.56044 | 38073 ft | 449 kts | 282° |
| 2026-05-07 20:46 | 47.88803 | -36.65332 | 38073 ft | 450 kts | 282° |
| 2026-05-07 20:46 | 47.89294 | -36.74635 | 38073 ft | 450 kts | 281° |
| 2026-05-07 20:47 | 47.89778 | -36.83945 | 38072 ft | 451 kts | 281° |
| 2026-05-07 20:47 | 47.90256 | -36.93272 | 38073 ft | 452 kts | 281° |
| 2026-05-07 20:48 | 47.90726 | -37.02613 | 38073 ft | 452 kts | 281° |
| 2026-05-07 20:48 | 47.91189 | -37.11961 | 38057 ft | 452 kts | 281° |
| 2026-05-07 20:49 | 47.91645 | -37.21326 | 38036 ft | 453 kts | 281° |
| 2026-05-07 20:49 | 47.92091 | -37.30631 | 38036 ft | 453 kts | 281° |
| 2026-05-07 20:50 | 47.92533 | -37.40010 | 38036 ft | 454 kts | 281° |
| 2026-05-07 20:50 | 47.92967 | -37.49399 | 38036 ft | 454 kts | 280° |
| 2026-05-07 20:51 | 47.93392 | -37.58784 | 38036 ft | 453 kts | 280° |
| 2026-05-07 20:51 | 47.93811 | -37.68172 | 38036 ft | 453 kts | 280° |
| 2026-05-07 20:52 | 47.94223 | -37.77557 | 38036 ft | 454 kts | 280° |
| 2026-05-07 20:52 | 47.94627 | -37.86945 | 38036 ft | 453 kts | 280° |
| 2026-05-07 20:53 | 47.95022 | -37.96343 | 38036 ft | 454 kts | 280° |
| 2026-05-07 20:53 | 47.95408 | -38.05681 | 38036 ft | 454 kts | 280° |
| 2026-05-07 20:54 | 47.95788 | -38.15073 | 38036 ft | 454 kts | 280° |
| 2026-05-07 20:54 | 47.96161 | -38.24468 | 38036 ft | 454 kts | 279° |
| 2026-05-07 20:55 | 47.96527 | -38.33872 | 38036 ft | 454 kts | 279° |
| 2026-05-07 20:55 | 47.96885 | -38.43288 | 38036 ft | 454 kts | 279° |
| 2026-05-07 20:56 | 47.97235 | -38.52698 | 38036 ft | 454 kts | 279° |
| 2026-05-07 20:56 | 47.97577 | -38.62071 | 38036 ft | 455 kts | 279° |
| 2026-05-07 20:57 | 47.97913 | -38.71521 | 38036 ft | 456 kts | 279° |
| 2026-05-07 20:57 | 47.98241 | -38.80989 | 38035 ft | 456 kts | 278° |
| 2026-05-07 20:58 | 47.98562 | -38.90455 | 38036 ft | 456 kts | 278° |
| 2026-05-07 20:58 | 47.98875 | -38.99916 | 38036 ft | 457 kts | 278° |
| 2026-05-07 20:59 | 47.99178 | -39.09341 | 38036 ft | 457 kts | 278° |
| 2026-05-07 20:59 | 47.99477 | -39.18826 | 38036 ft | 457 kts | 278° |
| 2026-05-07 21:00 | 47.99768 | -39.28304 | 38036 ft | 457 kts | 278° |
| 2026-05-07 21:00 | 48.00049 | -39.37790 | 38036 ft | 457 kts | 277° |
| 2026-05-07 21:01 | 48.00324 | -39.47273 | 38035 ft | 455 kts | 277° |
| 2026-05-07 21:01 | 48.00587 | -39.56675 | 38036 ft | 453 kts | 276° |
| 2026-05-07 21:02 | 48.00845 | -39.66080 | 38036 ft | 453 kts | 276° |
| 2026-05-07 21:02 | 48.01094 | -39.75432 | 38036 ft | 454 kts | 276° |
| 2026-05-07 21:03 | 48.01337 | -39.84866 | 38036 ft | 454 kts | 276° |
| 2026-05-07 21:03 | 48.01572 | -39.94298 | 38036 ft | 455 kts | 276° |
| 2026-05-07 21:04 | 48.01806 | -40.03744 | 38036 ft | 455 kts | 276° |
| 2026-05-07 21:04 | 48.02034 | -40.13189 | 38036 ft | 455 kts | 276° |
| 2026-05-07 21:05 | 48.02255 | -40.22638 | 38036 ft | 455 kts | 276° |
| 2026-05-07 21:05 | 48.02468 | -40.32093 | 38036 ft | 455 kts | 276° |
| 2026-05-07 21:06 | 48.02674 | -40.41542 | 38036 ft | 455 kts | 276° |
| 2026-05-07 21:06 | 48.02872 | -40.50984 | 38036 ft | 454 kts | 276° |
| 2026-05-07 21:07 | 48.03063 | -40.60421 | 38036 ft | 454 kts | 276° |
| 2026-05-07 21:07 | 48.03245 | -40.69865 | 38036 ft | 454 kts | 275° |
| 2026-05-07 21:08 | 48.03420 | -40.79303 | 38036 ft | 454 kts | 275° |
| 2026-05-07 21:08 | 48.03586 | -40.88670 | 38036 ft | 454 kts | 275° |
| 2026-05-07 21:09 | 48.03745 | -40.98095 | 38036 ft | 454 kts | 275° |
| 2026-05-07 21:09 | 48.03896 | -41.07529 | 38036 ft | 454 kts | 275° |
| 2026-05-07 21:10 | 48.04040 | -41.16970 | 38036 ft | 454 kts | 275° |
| 2026-05-07 21:10 | 48.04176 | -41.26415 | 38021 ft | 455 kts | 274° |
| 2026-05-07 21:11 | 48.04305 | -41.35877 | 38017 ft | 456 kts | 274° |
| 2026-05-07 21:11 | 48.04483 | -41.50084 | 38017 ft | 456 kts | 274° |
| 2026-05-07 21:12 | 48.04592 | -41.59578 | 38017 ft | 457 kts | 274° |
| 2026-05-07 21:12 | 48.04694 | -41.69088 | 38017 ft | 457 kts | 274° |
| 2026-05-07 21:13 | 48.04789 | -41.78598 | 38017 ft | 458 kts | 274° |
| 2026-05-07 21:13 | 48.04875 | -41.88060 | 38017 ft | 458 kts | 274° |
| 2026-05-07 21:14 | 48.04953 | -41.97594 | 38017 ft | 459 kts | 273° |
| 2026-05-07 21:14 | 48.05024 | -42.07137 | 38044 ft | 459 kts | 273° |
| 2026-05-07 21:15 | 48.05086 | -42.16675 | 38055 ft | 459 kts | 273° |
| 2026-05-07 21:15 | 48.05141 | -42.26214 | 38054 ft | 458 kts | 273° |
| 2026-05-07 21:16 | 48.05188 | -42.35736 | 38054 ft | 458 kts | 273° |
| 2026-05-07 21:16 | 48.05226 | -42.45272 | 38054 ft | 458 kts | 273° |
| 2026-05-07 21:17 | 48.05258 | -42.54733 | 38054 ft | 458 kts | 273° |
| 2026-05-07 21:17 | 48.05281 | -42.64250 | 38055 ft | 458 kts | 273° |
| 2026-05-07 21:18 | 48.05297 | -42.73762 | 38054 ft | 457 kts | 272° |
| 2026-05-07 21:18 | 48.05305 | -42.83276 | 38033 ft | 457 kts | 272° |
| 2026-05-07 21:19 | 48.05304 | -42.92786 | 38008 ft | 457 kts | 272° |
| 2026-05-07 21:19 | 48.05296 | -43.02287 | 38008 ft | 457 kts | 272° |
| 2026-05-07 21:20 | 48.05281 | -43.11743 | 38008 ft | 457 kts | 272° |
| 2026-05-07 21:20 | 48.05256 | -43.21258 | 38008 ft | 458 kts | 272° |
| 2026-05-07 21:21 | 48.05225 | -43.30770 | 38007 ft | 458 kts | 272° |
| 2026-05-07 21:21 | 48.05186 | -43.40288 | 38008 ft | 458 kts | 272° |
| 2026-05-07 21:22 | 48.05139 | -43.49821 | 38008 ft | 459 kts | 271° |
| 2026-05-07 21:22 | 48.05084 | -43.59350 | 38008 ft | 459 kts | 271° |
| 2026-05-07 21:23 | 48.05022 | -43.68831 | 38008 ft | 459 kts | 271° |
| 2026-05-07 21:23 | 48.04955 | -43.78397 | 38008 ft | 460 kts | 271° |
| 2026-05-07 21:24 | 48.04888 | -43.87958 | 38008 ft | 460 kts | 271° |
| 2026-05-07 21:24 | 48.04814 | -43.97517 | 38008 ft | 460 kts | 271° |
| 2026-05-07 21:25 | 48.04731 | -44.07099 | 38007 ft | 460 kts | 271° |
| 2026-05-07 21:25 | 48.04655 | -44.15049 | 37999 ft | 460 kts | 271° |
| 2026-05-07 21:26 | 48.04557 | -44.24619 | 37999 ft | 460 kts | 271° |
| 2026-05-07 21:26 | 48.04451 | -44.34180 | 37999 ft | 460 kts | 271° |
| 2026-05-07 21:27 | 48.04337 | -44.43733 | 37999 ft | 459 kts | 271° |
| 2026-05-07 21:27 | 48.04215 | -44.53279 | 37999 ft | 459 kts | 270° |
| 2026-05-07 21:28 | 48.04086 | -44.62753 | 37999 ft | 458 kts | 270° |
| 2026-05-07 21:28 | 48.03949 | -44.72262 | 37999 ft | 457 kts | 270° |
| 2026-05-07 21:29 | 48.03804 | -44.81758 | 37999 ft | 457 kts | 270° |
| 2026-05-07 21:29 | 48.03652 | -44.91236 | 37999 ft | 456 kts | 270° |
| 2026-05-07 21:30 | 48.03491 | -45.00698 | 37999 ft | 455 kts | 270° |
| 2026-05-07 21:30 | 48.03325 | -45.10150 | 37999 ft | 455 kts | 270° |
| 2026-05-07 21:31 | 48.03151 | -45.19583 | 37999 ft | 454 kts | 270° |
| 2026-05-07 21:31 | 48.02969 | -45.29028 | 37999 ft | 454 kts | 270° |
| 2026-05-07 21:32 | 48.02778 | -45.38463 | 37999 ft | 454 kts | 270° |
| 2026-05-07 21:32 | 48.02580 | -45.47847 | 38002 ft | 454 kts | 270° |
| 2026-05-07 21:33 | 48.02375 | -45.57299 | 38008 ft | 454 kts | 270° |
| 2026-05-07 21:33 | 48.02162 | -45.66735 | 38008 ft | 454 kts | 270° |
| 2026-05-07 21:34 | 48.01940 | -45.76176 | 38008 ft | 455 kts | 270° |
| 2026-05-07 21:34 | 48.01711 | -45.85629 | 38008 ft | 455 kts | 270° |
| 2026-05-07 21:35 | 48.01475 | -45.95024 | 38008 ft | 456 kts | 269° |
| 2026-05-07 21:35 | 48.01230 | -46.04473 | 38008 ft | 456 kts | 269° |
| 2026-05-07 21:36 | 48.00978 | -46.13926 | 38008 ft | 455 kts | 269° |
| 2026-05-07 21:36 | 48.00717 | -46.23391 | 38008 ft | 455 kts | 269° |
| 2026-05-07 21:37 | 48.00449 | -46.32839 | 38008 ft | 455 kts | 269° |
| 2026-05-07 21:37 | 48.00173 | -46.42289 | 38008 ft | 454 kts | 269° |
| 2026-05-07 21:38 | 47.99890 | -46.51698 | 38008 ft | 453 kts | 269° |
| 2026-05-07 21:38 | 47.99600 | -46.61099 | 38008 ft | 453 kts | 269° |
| 2026-05-07 21:39 | 47.99305 | -46.70424 | 38008 ft | 452 kts | 269° |
| 2026-05-07 21:39 | 47.99001 | -46.79792 | 38008 ft | 451 kts | 269° |
| 2026-05-07 21:40 | 47.98689 | -46.89151 | 38008 ft | 450 kts | 269° |
| 2026-05-07 21:40 | 47.98371 | -46.98477 | 38008 ft | 449 kts | 268° |
| 2026-05-07 21:41 | 47.98046 | -47.07777 | 38008 ft | 448 kts | 268° |
| 2026-05-07 21:41 | 47.97716 | -47.17040 | 38008 ft | 446 kts | 268° |
| 2026-05-07 21:42 | 47.97378 | -47.26276 | 38000 ft | 445 kts | 268° |
| 2026-05-07 21:42 | 47.97034 | -47.35485 | 37998 ft | 444 kts | 268° |
| 2026-05-07 21:43 | 47.96687 | -47.44622 | 37998 ft | 443 kts | 268° |
| 2026-05-07 21:43 | 47.96335 | -47.53785 | 37998 ft | 442 kts | 268° |
| 2026-05-07 21:44 | 47.95979 | -47.62932 | 37999 ft | 441 kts | 267° |
| 2026-05-07 21:44 | 47.95617 | -47.72059 | 37998 ft | 440 kts | 267° |
| 2026-05-07 21:45 | 47.95247 | -47.81178 | 37999 ft | 440 kts | 267° |
| 2026-05-07 21:45 | 47.94870 | -47.90287 | 37999 ft | 439 kts | 267° |
| 2026-05-07 21:46 | 47.94489 | -47.99322 | 37999 ft | 439 kts | 267° |
| 2026-05-07 21:46 | 47.94099 | -48.08408 | 37999 ft | 439 kts | 267° |
| 2026-05-07 21:47 | 47.93701 | -48.17501 | 37999 ft | 439 kts | 267° |
| 2026-05-07 21:47 | 47.93298 | -48.26576 | 37999 ft | 439 kts | 267° |
| 2026-05-07 21:48 | 47.92886 | -48.35677 | 37999 ft | 439 kts | 267° |
| 2026-05-07 21:48 | 47.92469 | -48.44720 | 37999 ft | 440 kts | 266° |
| 2026-05-07 21:49 | 47.92042 | -48.53813 | 37999 ft | 439 kts | 266° |
| 2026-05-07 21:49 | 47.91608 | -48.62907 | 37999 ft | 440 kts | 266° |
| 2026-05-07 21:50 | 47.91166 | -48.72006 | 37999 ft | 440 kts | 266° |
| 2026-05-07 21:50 | 47.90718 | -48.81106 | 37989 ft | 440 kts | 266° |
| 2026-05-07 21:51 | 47.90266 | -48.90146 | 37990 ft | 439 kts | 266° |
| 2026-05-07 21:51 | 47.89803 | -48.99234 | 37990 ft | 440 kts | 265° |
| 2026-05-07 21:52 | 47.89333 | -49.08327 | 37990 ft | 439 kts | 265° |
| 2026-05-07 21:52 | 47.88856 | -49.17407 | 37990 ft | 439 kts | 265° |
| 2026-05-07 21:53 | 47.88373 | -49.26479 | 37990 ft | 439 kts | 265° |
| 2026-05-07 21:53 | 47.87881 | -49.35564 | 37990 ft | 440 kts | 265° |
| 2026-05-07 21:54 | 47.87386 | -49.44581 | 37989 ft | 440 kts | 264° |
| 2026-05-07 21:54 | 47.86881 | -49.53661 | 37989 ft | 439 kts | 264° |
| 2026-05-07 21:55 | 47.86369 | -49.62723 | 37990 ft | 438 kts | 264° |
| 2026-05-07 21:55 | 47.85850 | -49.71784 | 37990 ft | 438 kts | 264° |
| 2026-05-07 21:56 | 47.85324 | -49.80839 | 37990 ft | 438 kts | 264° |
| 2026-05-07 21:56 | 47.84794 | -49.89831 | 37989 ft | 439 kts | 264° |
| 2026-05-07 21:57 | 47.84255 | -49.98879 | 37989 ft | 439 kts | 264° |
| 2026-05-07 21:57 | 47.83708 | -50.07935 | 37994 ft | 439 kts | 263° |
| 2026-05-07 21:58 | 47.83153 | -50.16989 | 37999 ft | 439 kts | 263° |
| 2026-05-07 21:58 | 47.82591 | -50.26029 | 37999 ft | 439 kts | 263° |
| 2026-05-07 21:59 | 47.82022 | -50.35085 | 37998 ft | 439 kts | 263° |
| 2026-05-07 21:59 | 47.81451 | -50.44067 | 37999 ft | 438 kts | 263° |
| 2026-05-07 22:00 | 47.80869 | -50.53094 | 37998 ft | 438 kts | 263° |
| 2026-05-07 22:00 | 47.80280 | -50.62120 | 37990 ft | 438 kts | 263° |
| 2026-05-07 22:01 | 47.79683 | -50.71147 | 37997 ft | 438 kts | 263° |
| 2026-05-07 22:01 | 47.79080 | -50.80172 | 37999 ft | 438 kts | 263° |
| 2026-05-07 22:02 | 47.78475 | -50.89122 | 37998 ft | 437 kts | 262° |
| 2026-05-07 22:02 | 47.77857 | -50.98136 | 37999 ft | 438 kts | 262° |
| 2026-05-07 22:03 | 47.77234 | -51.07132 | 37999 ft | 437 kts | 262° |
| 2026-05-07 22:03 | 47.76604 | -51.16130 | 37999 ft | 437 kts | 262° |
| 2026-05-07 22:04 | 47.75965 | -51.25117 | 37999 ft | 437 kts | 261° |
| 2026-05-07 22:04 | 47.75314 | -51.34093 | 37999 ft | 436 kts | 261° |
| 2026-05-07 22:05 | 47.74662 | -51.43008 | 37999 ft | 436 kts | 261° |
| 2026-05-07 22:05 | 47.74001 | -51.51966 | 38005 ft | 436 kts | 261° |
| 2026-05-07 22:06 | 47.73333 | -51.60913 | 38008 ft | 436 kts | 261° |
| 2026-05-07 22:06 | 47.72657 | -51.69863 | 38008 ft | 435 kts | 260° |
| 2026-05-07 22:07 | 47.71975 | -51.78800 | 38008 ft | 435 kts | 260° |
| 2026-05-07 22:07 | 47.71287 | -51.87735 | 38008 ft | 436 kts | 260° |
| 2026-05-07 22:08 | 47.70592 | -51.96666 | 38008 ft | 435 kts | 260° |
| 2026-05-07 22:08 | 47.69891 | -52.05595 | 38008 ft | 435 kts | 260° |
| 2026-05-07 22:09 | 47.69189 | -52.14450 | 38008 ft | 435 kts | 260° |
| 2026-05-07 22:09 | 47.68134 | -52.23246 | 38017 ft | 431 kts | 253° |
| 2026-05-07 22:10 | 47.66697 | -52.31887 | 38017 ft | 432 kts | 253° |
| 2026-05-07 22:10 | 47.65194 | -52.40523 | 38008 ft | 432 kts | 253° |
| 2026-05-07 22:11 | 47.63794 | -52.49203 | 38008 ft | 434 kts | 260° |
| 2026-05-07 22:11 | 47.63193 | -52.58128 | 38008 ft | 435 kts | 262° |
| 2026-05-07 22:12 | 47.62679 | -52.67007 | 38008 ft | 434 kts | 262° |
| 2026-05-07 22:12 | 47.62164 | -52.75928 | 38009 ft | 434 kts | 263° |
| 2026-05-07 22:13 | 47.61541 | -52.84820 | 38008 ft | 433 kts | 260° |
| 2026-05-07 22:13 | 47.60741 | -52.93645 | 38023 ft | 432 kts | 260° |
| 2026-05-07 22:14 | 47.60083 | -53.00972 | 38026 ft | 431 kts | 261° |
| 2026-05-07 22:14 | 47.59297 | -53.09797 | 38034 ft | 431 kts | 261° |
| 2026-05-07 22:15 | 47.58509 | -53.18604 | 38026 ft | 430 kts | 261° |
| 2026-05-07 22:15 | 47.57717 | -53.27394 | 38026 ft | 429 kts | 261° |
| 2026-05-07 22:16 | 47.56920 | -53.36160 | 38030 ft | 430 kts | 261° |
| 2026-05-07 22:16 | 47.56117 | -53.44934 | 38030 ft | 429 kts | 261° |
| 2026-05-07 22:17 | 47.55308 | -53.53680 | 38018 ft | 429 kts | 260° |
| 2026-05-07 22:17 | 47.54492 | -53.62423 | 38017 ft | 428 kts | 260° |
| 2026-05-07 22:18 | 47.53266 | -53.75452 | 38010 ft | 428 kts | 260° |
| 2026-05-07 22:19 | 47.52436 | -53.84170 | 38007 ft | 428 kts | 260° |
| 2026-05-07 22:19 | 47.51600 | -53.92891 | 38004 ft | 428 kts | 260° |
| 2026-05-07 22:20 | 47.50755 | -54.01610 | 37999 ft | 429 kts | 260° |
| 2026-05-07 22:20 | 47.49907 | -54.10315 | 37989 ft | 426 kts | 260° |
| 2026-05-07 22:21 | 47.49058 | -54.18961 | 37984 ft | 424 kts | 260° |
| 2026-05-07 22:21 | 47.48200 | -54.27606 | 37982 ft | 424 kts | 260° |
| 2026-05-07 22:22 | 47.47341 | -54.36223 | 37972 ft | 423 kts | 260° |
| 2026-05-07 22:22 | 47.46481 | -54.44766 | 37971 ft | 422 kts | 260° |
| 2026-05-07 22:23 | 47.45610 | -54.53346 | 37958 ft | 421 kts | 260° |
| 2026-05-07 22:23 | 47.44736 | -54.61896 | 37958 ft | 420 kts | 260° |
| 2026-05-07 22:24 | 47.43857 | -54.70423 | 37922 ft | 419 kts | 260° |
| 2026-05-07 22:24 | 47.42975 | -54.78918 | 37884 ft | 418 kts | 260° |
| 2026-05-07 22:25 | 47.42090 | -54.87388 | 37868 ft | 416 kts | 260° |
| 2026-05-07 22:25 | 47.41201 | -54.95829 | 37871 ft | 415 kts | 260° |
| 2026-05-07 22:26 | 47.40309 | -55.04241 | 37870 ft | 414 kts | 260° |
| 2026-05-07 22:26 | 47.39417 | -55.12586 | 37869 ft | 413 kts | 260° |
| 2026-05-07 22:27 | 47.38517 | -55.20953 | 37872 ft | 413 kts | 260° |
| 2026-05-07 22:27 | 47.37611 | -55.29313 | 37870 ft | 412 kts | 260° |
| 2026-05-07 22:28 | 47.36700 | -55.37653 | 37871 ft | 411 kts | 260° |
| 2026-05-07 22:28 | 47.35787 | -55.45956 | 37878 ft | 410 kts | 260° |
| 2026-05-07 22:29 | 47.34869 | -55.54262 | 37878 ft | 410 kts | 260° |
| 2026-05-07 22:29 | 47.33946 | -55.62545 | 37875 ft | 409 kts | 260° |
| 2026-05-07 22:30 | 47.33019 | -55.70806 | 37876 ft | 409 kts | 259° |
| 2026-05-07 22:30 | 47.32086 | -55.79066 | 37878 ft | 409 kts | 259° |
| 2026-05-07 22:31 | 47.31147 | -55.87323 | 37883 ft | 409 kts | 259° |
| 2026-05-07 22:31 | 47.30209 | -55.95524 | 37877 ft | 409 kts | 259° |
| 2026-05-07 22:32 | 47.29258 | -56.03781 | 37876 ft | 408 kts | 259° |
| 2026-05-07 22:32 | 47.28307 | -56.11975 | 37877 ft | 404 kts | 259° |
| 2026-05-07 22:33 | 47.27359 | -56.20101 | 37875 ft | 402 kts | 259° |
| 2026-05-07 22:33 | 47.26409 | -56.28192 | 37866 ft | 401 kts | 259° |
| 2026-05-07 22:34 | 47.25453 | -56.36273 | 37868 ft | 400 kts | 259° |
| 2026-05-07 22:34 | 47.24500 | -56.44284 | 37871 ft | 399 kts | 259° |
| 2026-05-07 22:35 | 47.23538 | -56.52324 | 37869 ft | 399 kts | 259° |
| 2026-05-07 22:35 | 47.22570 | -56.60354 | 37869 ft | 398 kts | 259° |
| 2026-05-07 22:36 | 47.21599 | -56.68375 | 37869 ft | 397 kts | 259° |
| 2026-05-07 22:36 | 47.20624 | -56.76368 | 37872 ft | 396 kts | 259° |
| 2026-05-07 22:37 | 47.19646 | -56.84345 | 37870 ft | 395 kts | 259° |
| 2026-05-07 22:37 | 47.18665 | -56.92293 | 37863 ft | 394 kts | 258° |
| 2026-05-07 22:38 | 47.17682 | -57.00213 | 37862 ft | 393 kts | 258° |
| 2026-05-07 22:38 | 47.16693 | -57.08130 | 37862 ft | 393 kts | 258° |
| 2026-05-07 22:39 | 47.15704 | -57.16008 | 37859 ft | 392 kts | 258° |
| 2026-05-07 22:39 | 47.14709 | -57.23875 | 37850 ft | 391 kts | 258° |
| 2026-05-07 22:40 | 47.13720 | -57.31665 | 37851 ft | 390 kts | 258° |
| 2026-05-07 22:40 | 47.12720 | -57.39489 | 37832 ft | 389 kts | 258° |
| 2026-05-07 22:41 | 47.11716 | -57.47309 | 37812 ft | 389 kts | 258° |
| 2026-05-07 22:41 | 47.10709 | -57.55095 | 37804 ft | 388 kts | 258° |
| 2026-05-07 22:42 | 47.09698 | -57.62874 | 37804 ft | 388 kts | 258° |
| 2026-05-07 22:42 | 47.08683 | -57.70637 | 37795 ft | 387 kts | 258° |
| 2026-05-07 22:43 | 47.07663 | -57.78398 | 37795 ft | 386 kts | 258° |
| 2026-05-07 22:43 | 47.06641 | -57.86126 | 37786 ft | 386 kts | 258° |
| 2026-05-07 22:44 | 47.05615 | -57.93852 | 37786 ft | 385 kts | 257° |
| 2026-05-07 22:44 | 47.04585 | -58.01558 | 37776 ft | 385 kts | 257° |
| 2026-05-07 22:45 | 47.03560 | -58.09192 | 37775 ft | 382 kts | 257° |
| 2026-05-07 22:45 | 47.02532 | -58.16806 | 37767 ft | 380 kts | 257° |
| 2026-05-07 22:46 | 47.01500 | -58.24385 | 37767 ft | 379 kts | 257° |
| 2026-05-07 22:46 | 47.00467 | -58.31963 | 37758 ft | 379 kts | 257° |
| 2026-05-07 22:47 | 46.99431 | -58.39527 | 37757 ft | 378 kts | 257° |
| 2026-05-07 22:47 | 46.98387 | -58.47092 | 37749 ft | 379 kts | 257° |
| 2026-05-07 22:48 | 46.97340 | -58.54647 | 37750 ft | 379 kts | 256° |
| 2026-05-07 22:48 | 46.96296 | -58.62148 | 37739 ft | 377 kts | 256° |
| 2026-05-07 22:49 | 46.95240 | -58.69679 | 37740 ft | 377 kts | 256° |
| 2026-05-07 22:49 | 46.94183 | -58.77199 | 37738 ft | 376 kts | 256° |
| 2026-05-07 22:50 | 46.93123 | -58.84703 | 37731 ft | 377 kts | 256° |
| 2026-05-07 22:50 | 46.92056 | -58.92210 | 37726 ft | 377 kts | 256° |
| 2026-05-07 22:51 | 46.90985 | -58.99711 | 37720 ft | 376 kts | 256° |
| 2026-05-07 22:51 | 46.89910 | -59.07193 | 37715 ft | 376 kts | 256° |
| 2026-05-07 22:52 | 46.88832 | -59.14675 | 37723 ft | 375 kts | 256° |
| 2026-05-07 22:52 | 46.87752 | -59.22122 | 37711 ft | 375 kts | 255° |
| 2026-05-07 22:53 | 46.86673 | -59.29524 | 37710 ft | 375 kts | 255° |
| 2026-05-07 22:53 | 46.85582 | -59.36961 | 37711 ft | 374 kts | 255° |
| 2026-05-07 22:54 | 46.84490 | -59.44392 | 37712 ft | 374 kts | 255° |
| 2026-05-07 22:54 | 46.83393 | -59.51817 | 37702 ft | 373 kts | 255° |
| 2026-05-07 22:55 | 46.82292 | -59.59232 | 37703 ft | 372 kts | 255° |
| 2026-05-07 22:55 | 46.81191 | -59.66614 | 37699 ft | 372 kts | 255° |
| 2026-05-07 22:56 | 46.80092 | -59.73938 | 37692 ft | 371 kts | 255° |
| 2026-05-07 22:56 | 46.78982 | -59.81306 | 37692 ft | 371 kts | 255° |
| 2026-05-07 22:57 | 46.77870 | -59.88654 | 37693 ft | 371 kts | 255° |
| 2026-05-07 22:57 | 46.76758 | -59.95973 | 37692 ft | 369 kts | 255° |
| 2026-05-07 22:58 | 46.75643 | -60.03284 | 37693 ft | 369 kts | 254° |
| 2026-05-07 22:58 | 46.74520 | -60.10598 | 37693 ft | 370 kts | 254° |
| 2026-05-07 22:59 | 46.73392 | -60.17912 | 37692 ft | 370 kts | 254° |
| 2026-05-07 22:59 | 46.72257 | -60.25237 | 37687 ft | 370 kts | 254° |
| 2026-05-07 23:00 | 46.71126 | -60.32506 | 37683 ft | 369 kts | 254° |
| 2026-05-07 23:00 | 46.69985 | -60.39810 | 37684 ft | 370 kts | 254° |
| 2026-05-07 23:01 | 46.68836 | -60.47136 | 37685 ft | 371 kts | 254° |
| 2026-05-07 23:01 | 46.67682 | -60.54456 | 37684 ft | 371 kts | 253° |
| 2026-05-07 23:02 | 46.66523 | -60.61766 | 37683 ft | 371 kts | 253° |
| 2026-05-07 23:02 | 46.65557 | -60.67844 | 37683 ft | 371 kts | 253° |
| 2026-05-07 23:03 | 46.64389 | -60.75162 | 37683 ft | 372 kts | 253° |
| 2026-05-07 23:03 | 46.63023 | -60.83683 | 37684 ft | 372 kts | 253° |
| 2026-05-07 23:04 | 46.62033 | -60.89830 | 37684 ft | 372 kts | 253° |
| 2026-05-07 23:04 | 46.60855 | -60.97114 | 37684 ft | 372 kts | 253° |
| 2026-05-07 23:05 | 46.59664 | -61.04447 | 37682 ft | 372 kts | 253° |
| 2026-05-07 23:05 | 46.58468 | -61.11776 | 37683 ft | 372 kts | 252° |
| 2026-05-07 23:06 | 46.57269 | -61.19095 | 37683 ft | 373 kts | 252° |
| 2026-05-07 23:06 | 46.56064 | -61.26417 | 37683 ft | 372 kts | 252° |
| 2026-05-07 23:07 | 46.54857 | -61.33719 | 37675 ft | 372 kts | 252° |
| 2026-05-07 23:07 | 46.53645 | -61.41021 | 37673 ft | 372 kts | 252° |
| 2026-05-07 23:08 | 46.52428 | -61.48317 | 37674 ft | 372 kts | 252° |
| 2026-05-07 23:08 | 46.51209 | -61.55601 | 37674 ft | 371 kts | 252° |
| 2026-05-07 23:09 | 46.49986 | -61.62863 | 37673 ft | 370 kts | 252° |
| 2026-05-07 23:09 | 46.48923 | -61.69158 | 37674 ft | 370 kts | 252° |
| 2026-05-07 23:10 | 46.47704 | -61.76352 | 37674 ft | 369 kts | 252° |
| 2026-05-07 23:10 | 46.46486 | -61.83522 | 37539 ft | 358 kts | 252° |
| 2026-05-07 23:10 | 46.45893 | -61.87002 | 37146 ft | 355 kts | 252° |
| 2026-05-07 23:11 | 46.45298 | -61.90476 | 36691 ft | 354 kts | 252° |
| 2026-05-07 23:11 | 46.44706 | -61.93930 | 36239 ft | 353 kts | 252° |
| 2026-05-07 23:11 | 46.44115 | -61.97371 | 35799 ft | 351 kts | 252° |
| 2026-05-07 23:11 | 46.43525 | -62.00796 | 35335 ft | 349 kts | 252° |
| 2026-05-07 23:12 | 46.42937 | -62.04208 | 34841 ft | 350 kts | 252° |
| 2026-05-07 23:12 | 46.42336 | -62.07671 | 34385 ft | 360 kts | 251° |
| 2026-05-07 23:12 | 46.41719 | -62.11223 | 34207 ft | 365 kts | 252° |
| 2026-05-07 23:12 | 46.41103 | -62.14783 | 33731 ft | 362 kts | 252° |
| 2026-05-07 23:13 | 46.40489 | -62.18323 | 33035 ft | 363 kts | 251° |
| 2026-05-07 23:13 | 46.39871 | -62.21873 | 32370 ft | 364 kts | 251° |
| 2026-05-07 23:13 | 46.39252 | -62.25423 | 31712 ft | 364 kts | 251° |
| 2026-05-07 23:13 | 46.38631 | -62.28978 | 31071 ft | 364 kts | 251° |
| 2026-05-07 23:14 | 46.38006 | -62.32540 | 30432 ft | 364 kts | 251° |
| 2026-05-07 23:14 | 46.37371 | -62.36142 | 29884 ft | 379 kts | 251° |
| 2026-05-07 23:14 | 46.36703 | -62.39909 | 29641 ft | 390 kts | 251° |
| 2026-05-07 23:14 | 46.36039 | -62.43690 | 28944 ft | 388 kts | 251° |
| 2026-05-07 23:15 | 46.35367 | -62.47499 | 28078 ft | 392 kts | 250° |
| 2026-05-07 23:15 | 46.34688 | -62.51345 | 27564 ft | 398 kts | 250° |
| 2026-05-07 23:15 | 46.34006 | -62.55190 | 27160 ft | 400 kts | 250° |
| 2026-05-07 23:15 | 46.33309 | -62.59127 | 26657 ft | 398 kts | 250° |
| 2026-05-07 23:16 | 46.32628 | -62.62961 | 26154 ft | 398 kts | 250° |
| 2026-05-07 23:16 | 46.31934 | -62.66842 | 25674 ft | 400 kts | 250° |
| 2026-05-07 23:16 | 46.31237 | -62.70738 | 25210 ft | 398 kts | 250° |
| 2026-05-07 23:16 | 46.30547 | -62.74600 | 24741 ft | 396 kts | 249° |
| 2026-05-07 23:17 | 46.29853 | -62.78461 | 24282 ft | 397 kts | 249° |
| 2026-05-07 23:17 | 46.29158 | -62.82320 | 23797 ft | 394 kts | 249° |
| 2026-05-07 23:17 | 46.28470 | -62.86141 | 23330 ft | 394 kts | 249° |
| 2026-05-07 23:17 | 46.27778 | -62.89969 | 22864 ft | 390 kts | 249° |
| 2026-05-07 23:18 | 46.27096 | -62.93744 | 22376 ft | 385 kts | 249° |
| 2026-05-07 23:18 | 46.26417 | -62.97482 | 21948 ft | 384 kts | 249° |
| 2026-05-07 23:18 | 46.25745 | -63.01179 | 21447 ft | 379 kts | 249° |
| 2026-05-07 23:18 | 46.25080 | -63.04832 | 20969 ft | 373 kts | 249° |
| 2026-05-07 23:19 | 46.24415 | -63.08460 | 20524 ft | 372 kts | 249° |
| 2026-05-07 23:19 | 46.23758 | -63.12052 | 20056 ft | 366 kts | 249° |
| 2026-05-07 23:19 | 46.23124 | -63.15519 | 19593 ft | 359 kts | 249° |
| 2026-05-07 23:19 | 46.22491 | -63.18974 | 19154 ft | 352 kts | 249° |
| 2026-05-07 23:20 | 46.21868 | -63.22361 | 18721 ft | 346 kts | 249° |
| 2026-05-07 23:20 | 46.21251 | -63.25699 | 18280 ft | 340 kts | 249° |
| 2026-05-07 23:20 | 46.20647 | -63.28974 | 17873 ft | 335 kts | 249° |
| 2026-05-07 23:20 | 46.20051 | -63.32192 | 17459 ft | 329 kts | 249° |
| 2026-05-07 23:21 | 46.19464 | -63.35360 | 17047 ft | 324 kts | 249° |
| 2026-05-07 23:21 | 46.18883 | -63.38486 | 16646 ft | 320 kts | 249° |
| 2026-05-07 23:21 | 46.18305 | -63.41582 | 16246 ft | 320 kts | 249° |
| 2026-05-07 23:21 | 46.17737 | -63.44623 | 15853 ft | 319 kts | 249° |
| 2026-05-07 23:22 | 46.17159 | -63.47713 | 15510 ft | 319 kts | 250° |
| 2026-05-07 23:22 | 46.16584 | -63.50791 | 15213 ft | 317 kts | 250° |
| 2026-05-07 23:22 | 46.16007 | -63.53867 | 14952 ft | 318 kts | 250° |
| 2026-05-07 23:22 | 46.15431 | -63.56940 | 14579 ft | 317 kts | 250° |
| 2026-05-07 23:23 | 46.14856 | -63.60003 | 14173 ft | 315 kts | 250° |
| 2026-05-07 23:23 | 46.14284 | -63.63046 | 13778 ft | 314 kts | 250° |
| 2026-05-07 23:23 | 46.13730 | -63.65995 | 13638 ft | 303 kts | 251° |
| 2026-05-07 23:23 | 46.13191 | -63.68866 | 13511 ft | 291 kts | 251° |
| 2026-05-07 23:24 | 46.12670 | -63.71636 | 13384 ft | 281 kts | 250° |
| 2026-05-07 23:24 | 46.12165 | -63.74304 | 13253 ft | 271 kts | 250° |
| 2026-05-07 23:24 | 46.11676 | -63.76885 | 13122 ft | 262 kts | 250° |
| 2026-05-07 23:24 | 46.11202 | -63.79379 | 12992 ft | 254 kts | 250° |
| 2026-05-07 23:25 | 46.10741 | -63.81804 | 12861 ft | 248 kts | 250° |
| 2026-05-07 23:25 | 46.10287 | -63.84183 | 12732 ft | 244 kts | 250° |
| 2026-05-07 23:25 | 46.09840 | -63.86526 | 12604 ft | 240 kts | 250° |
| 2026-05-07 23:25 | 46.09399 | -63.88830 | 12480 ft | 237 kts | 250° |
| 2026-05-07 23:26 | 46.08964 | -63.91102 | 12350 ft | 234 kts | 250° |
| 2026-05-07 23:26 | 46.08531 | -63.93361 | 12154 ft | 234 kts | 250° |
| 2026-05-07 23:26 | 46.08098 | -63.95618 | 11928 ft | 234 kts | 251° |
| 2026-05-07 23:26 | 46.07664 | -63.97884 | 11701 ft | 235 kts | 251° |
| 2026-05-07 23:27 | 46.06790 | -64.02433 | 11235 ft | 236 kts | 251° |
| 2026-05-07 23:27 | 46.06346 | -64.04739 | 11027 ft | 245 kts | 251° |
| 2026-05-07 23:27 | 46.05876 | -64.07161 | 10969 ft | 254 kts | 251° |
| 2026-05-07 23:28 | 46.05405 | -64.09607 | 10845 ft | 252 kts | 251° |
| 2026-05-07 23:28 | 46.04943 | -64.12009 | 10470 ft | 253 kts | 251° |
| 2026-05-07 23:28 | 46.04467 | -64.14471 | 10072 ft | 256 kts | 251° |
| 2026-05-07 23:28 | 46.03988 | -64.16946 | 9754 ft | 257 kts | 251° |
| 2026-05-07 23:29 | 46.03506 | -64.19435 | 9481 ft | 259 kts | 251° |
| 2026-05-07 23:29 | 46.03019 | -64.21936 | 9212 ft | 260 kts | 252° |
| 2026-05-07 23:29 | 46.02531 | -64.24449 | 8949 ft | 261 kts | 252° |
| 2026-05-07 23:29 | 46.02042 | -64.26966 | 8686 ft | 262 kts | 252° |
| 2026-05-07 23:30 | 46.01552 | -64.29483 | 8416 ft | 260 kts | 252° |
| 2026-05-07 23:30 | 46.01063 | -64.31990 | 8146 ft | 260 kts | 252° |
| 2026-05-07 23:30 | 46.00574 | -64.34495 | 7875 ft | 259 kts | 252° |
| 2026-05-07 23:30 | 46.00086 | -64.36990 | 7611 ft | 258 kts | 252° |
| 2026-05-07 23:31 | 45.99601 | -64.39465 | 7340 ft | 256 kts | 252° |
| 2026-05-07 23:31 | 45.99118 | -64.41929 | 7085 ft | 256 kts | 252° |
| 2026-05-07 23:31 | 45.98642 | -64.44358 | 6816 ft | 254 kts | 252° |
| 2026-05-07 23:31 | 45.98163 | -64.46799 | 6547 ft | 254 kts | 252° |
| 2026-05-07 23:32 | 45.97684 | -64.49231 | 6269 ft | 252 kts | 252° |
| 2026-05-07 23:32 | 45.97206 | -64.51655 | 5995 ft | 251 kts | 252° |
| 2026-05-07 23:32 | 45.96731 | -64.54060 | 5722 ft | 250 kts | 252° |
| 2026-05-07 23:32 | 45.96254 | -64.56470 | 5460 ft | 251 kts | 252° |
| 2026-05-07 23:33 | 45.95779 | -64.58868 | 5188 ft | 247 kts | 252° |
| 2026-05-07 23:33 | 45.95308 | -64.61223 | 4920 ft | 244 kts | 253° |
| 2026-05-07 23:33 | 45.94843 | -64.63563 | 4647 ft | 243 kts | 253° |
| 2026-05-07 23:33 | 45.94390 | -64.65859 | 4505 ft | 233 kts | 253° |
| 2026-05-07 23:34 | 45.93957 | -64.68035 | 4352 ft | 223 kts | 253° |
| 2026-05-07 23:34 | 45.93537 | -64.70142 | 4232 ft | 218 kts | 253° |
| 2026-05-07 23:34 | 45.93127 | -64.72216 | 4104 ft | 214 kts | 253° |
| 2026-05-07 23:34 | 45.92720 | -64.74257 | 4017 ft | 211 kts | 253° |
| 2026-05-07 23:35 | 45.92425 | -64.76319 | 3989 ft | 212 kts | 265° |
| 2026-05-07 23:35 | 45.92718 | -64.78388 | 3982 ft | 217 kts | 296° |
| 2026-05-07 23:35 | 45.93630 | -64.80139 | 3946 ft | 221 kts | 308° |
| 2026-05-07 23:35 | 45.94679 | -64.81767 | 3893 ft | 222 kts | 309° |
| 2026-05-07 23:36 | 45.95739 | -64.83379 | 3833 ft | 221 kts | 310° |
| 2026-05-07 23:36 | 45.96975 | -64.84664 | 3650 ft | 222 kts | 334° |
| 2026-05-07 23:36 | 45.98502 | -64.84815 | 3498 ft | 224 kts | 12° |
| 2026-05-07 23:36 | 45.99828 | -64.83747 | 3352 ft | 223 kts | 40° |
| 2026-05-07 23:37 | 46.00933 | -64.82141 | 2940 ft | 229 kts | 44° |
| 2026-05-07 23:37 | 46.02098 | -64.80584 | 2496 ft | 226 kts | 38° |
| 2026-05-07 23:37 | 46.03265 | -64.79136 | 2148 ft | 217 kts | 40° |
| 2026-05-07 23:37 | 46.04335 | -64.77701 | 1936 ft | 202 kts | 43° |
| 2026-05-07 23:38 | 46.05326 | -64.76361 | 1672 ft | 190 kts | 40° |
| 2026-05-07 23:38 | 46.06286 | -64.75134 | 1400 ft | 176 kts | 40° |
| 2026-05-07 23:38 | 46.07142 | -64.74003 | 1160 ft | 159 kts | 41° |
| 2026-05-07 23:38 | 46.07913 | -64.72972 | 965 ft | 144 kts | 41° |
| 2026-05-07 23:39 | 46.08620 | -64.72041 | 775 ft | 135 kts | 41° |
| 2026-05-07 23:39 | 46.09315 | -64.71128 | 610 ft | 138 kts | 41° |
| 2026-05-07 23:39 | 46.10022 | -64.70187 | 411 ft | 138 kts | 41° |
| 2026-05-07 23:39 | 46.10727 | -64.69255 | 256 ft | 136 kts | 41° |
| 2026-05-07 23:40 | 46.11345 | -64.68443 | 225 ft | 96 kts | 43° |
| 2026-05-07 23:40 | 46.11705 | -64.67971 | 222 ft | 46 kts | 42° |
| 2026-05-07 23:40 | 46.11830 | -64.67837 | 221 ft | 13 kts | 3° |
| 2026-05-07 23:40 | 46.11896 | -64.67908 | 225 ft | 15 kts | 313° |
| 2026-05-07 23:41 | 46.11898 | -64.68036 | 226 ft | 14 kts | 231° |
| 2026-05-07 23:41 | 46.11824 | -64.68138 | 223 ft | 15 kts | 223° |
| 2026-05-07 23:41 | 46.11743 | -64.68246 | 227 ft | 17 kts | 223° |
| 2026-05-07 23:41 | 46.11654 | -64.68361 | 223 ft | 18 kts | 221° |
| 2026-05-07 23:42 | 46.11566 | -64.68474 | 223 ft | 16 kts | 222° |
| 2026-05-07 23:42 | 46.11507 | -64.68557 | 229 ft | 7 kts | 239° |
| 2026-05-07 23:42 | 46.11512 | -64.68621 | 226 ft | 7 kts | 307° |
| 2026-05-07 23:42 | 46.11552 | -64.68668 | 223 ft | 8 kts | 318° |
| 2026-05-07 23:43 | 46.11582 | -64.68714 | 223 ft | 4 kts | 313° |
| 2026-05-07 23:43 | 46.11587 | -64.68722 | 225 ft | 0 kts | 313° |